<?xml version="1.0" encoding="UTF-8" standalone="no" ?>
<gpx xmlns="http://www.topografix.com/GPX/1/1" xmlns:xsi="http://www.w3.org/2001/XMLSchema-instance" xsi:schemaLocation="http://www.topografix.com/GPX/1/1 http://www.topografix.com/GPX/1/1/gpx.xsd" version="1.1" creator="VisuGPX - https://www.visugpx.com">
  <metadata>
    <name>Mont Pellat</name>
    <desc><![CDATA[Depuis le refuge du lac d'allos prendre le chemin au dessus des sanitaires 

et  suivre  mont Pellat  accessible à tous .]]></desc>
  </metadata>
  <trk>
    <name><![CDATA[mont-pellat]]></name>
    <trkseg>
      <trkpt lat="44.23811" lon="6.70675">
        <ele>2301</ele>
        <time>2017-08-13T06:04:15Z</time>
      </trkpt>
      <trkpt lat="44.2381" lon="6.70675">
        <ele>2301.3</ele>
        <time>2017-08-13T06:04:16Z</time>
      </trkpt>
      <trkpt lat="44.23816" lon="6.70686">
        <ele>2302.8</ele>
        <time>2017-08-13T06:04:31Z</time>
      </trkpt>
      <trkpt lat="44.23822" lon="6.70698">
        <ele>2303.1</ele>
        <time>2017-08-13T06:04:41Z</time>
      </trkpt>
      <trkpt lat="44.23824" lon="6.70711">
        <ele>2304.1</ele>
        <time>2017-08-13T06:04:55Z</time>
      </trkpt>
      <trkpt lat="44.23829" lon="6.70721">
        <ele>2305.6</ele>
        <time>2017-08-13T06:05:05Z</time>
      </trkpt>
      <trkpt lat="44.23828" lon="6.70734">
        <ele>2306.3</ele>
        <time>2017-08-13T06:05:12Z</time>
      </trkpt>
      <trkpt lat="44.23828" lon="6.70748">
        <ele>2307.5</ele>
        <time>2017-08-13T06:05:24Z</time>
      </trkpt>
      <trkpt lat="44.23834" lon="6.70758">
        <ele>2308.4</ele>
        <time>2017-08-13T06:05:35Z</time>
      </trkpt>
      <trkpt lat="44.23841" lon="6.70765">
        <ele>2309.3</ele>
        <time>2017-08-13T06:05:45Z</time>
      </trkpt>
      <trkpt lat="44.23847" lon="6.70775">
        <ele>2311.2</ele>
        <time>2017-08-13T06:06:02Z</time>
      </trkpt>
      <trkpt lat="44.23856" lon="6.70782">
        <ele>2312.3</ele>
        <time>2017-08-13T06:06:14Z</time>
      </trkpt>
      <trkpt lat="44.23866" lon="6.70785">
        <ele>2313.4</ele>
        <time>2017-08-13T06:06:23Z</time>
      </trkpt>
      <trkpt lat="44.23874" lon="6.70778">
        <ele>2314.6</ele>
        <time>2017-08-13T06:06:37Z</time>
      </trkpt>
      <trkpt lat="44.23887" lon="6.70776">
        <ele>2315.6</ele>
        <time>2017-08-13T06:06:58Z</time>
      </trkpt>
      <trkpt lat="44.23898" lon="6.70774">
        <ele>2317.1</ele>
        <time>2017-08-13T06:07:18Z</time>
      </trkpt>
      <trkpt lat="44.23907" lon="6.70775">
        <ele>2317.4</ele>
        <time>2017-08-13T06:07:21Z</time>
      </trkpt>
      <trkpt lat="44.23916" lon="6.70776">
        <ele>2317.8</ele>
        <time>2017-08-13T06:07:25Z</time>
      </trkpt>
      <trkpt lat="44.23926" lon="6.70778">
        <ele>2318.7</ele>
        <time>2017-08-13T06:07:36Z</time>
      </trkpt>
      <trkpt lat="44.23935" lon="6.70779">
        <ele>2319.4</ele>
        <time>2017-08-13T06:07:43Z</time>
      </trkpt>
      <trkpt lat="44.23945" lon="6.70777">
        <ele>2320.1</ele>
        <time>2017-08-13T06:07:50Z</time>
      </trkpt>
      <trkpt lat="44.23954" lon="6.70784">
        <ele>2320.9</ele>
        <time>2017-08-13T06:07:57Z</time>
      </trkpt>
      <trkpt lat="44.23961" lon="6.70793">
        <ele>2321.3</ele>
        <time>2017-08-13T06:08:02Z</time>
      </trkpt>
      <trkpt lat="44.23964" lon="6.70805">
        <ele>2321.7</ele>
        <time>2017-08-13T06:08:08Z</time>
      </trkpt>
      <trkpt lat="44.23971" lon="6.70815">
        <ele>2322.3</ele>
        <time>2017-08-13T06:08:18Z</time>
      </trkpt>
      <trkpt lat="44.23979" lon="6.70819">
        <ele>2322.8</ele>
        <time>2017-08-13T06:08:32Z</time>
      </trkpt>
      <trkpt lat="44.23987" lon="6.70811">
        <ele>2322.9</ele>
        <time>2017-08-13T06:08:41Z</time>
      </trkpt>
      <trkpt lat="44.23996" lon="6.70806">
        <ele>2323.2</ele>
        <time>2017-08-13T06:08:50Z</time>
      </trkpt>
      <trkpt lat="44.24003" lon="6.70798">
        <ele>2323.9</ele>
        <time>2017-08-13T06:09:02Z</time>
      </trkpt>
      <trkpt lat="44.24011" lon="6.70791">
        <ele>2324.3</ele>
        <time>2017-08-13T06:09:11Z</time>
      </trkpt>
      <trkpt lat="44.2402" lon="6.70796">
        <ele>2324.7</ele>
        <time>2017-08-13T06:09:20Z</time>
      </trkpt>
      <trkpt lat="44.24027" lon="6.70808">
        <ele>2325</ele>
        <time>2017-08-13T06:09:29Z</time>
      </trkpt>
      <trkpt lat="44.24032" lon="6.7082">
        <ele>2325.2</ele>
        <time>2017-08-13T06:09:36Z</time>
      </trkpt>
      <trkpt lat="44.24038" lon="6.70831">
        <ele>2325.4</ele>
        <time>2017-08-13T06:09:44Z</time>
      </trkpt>
      <trkpt lat="44.24048" lon="6.70829">
        <ele>2325.5</ele>
        <time>2017-08-13T06:10:01Z</time>
      </trkpt>
      <trkpt lat="44.24054" lon="6.70819">
        <ele>2325.4</ele>
        <time>2017-08-13T06:10:06Z</time>
      </trkpt>
      <trkpt lat="44.24062" lon="6.70812">
        <ele>2325.3</ele>
        <time>2017-08-13T06:10:15Z</time>
      </trkpt>
      <trkpt lat="44.24071" lon="6.7081">
        <ele>2324.9</ele>
        <time>2017-08-13T06:10:25Z</time>
      </trkpt>
      <trkpt lat="44.24081" lon="6.7081">
        <ele>2324.4</ele>
        <time>2017-08-13T06:10:33Z</time>
      </trkpt>
      <trkpt lat="44.24087" lon="6.70799">
        <ele>2323.9</ele>
        <time>2017-08-13T06:10:42Z</time>
      </trkpt>
      <trkpt lat="44.24096" lon="6.70795">
        <ele>2323.5</ele>
        <time>2017-08-13T06:10:51Z</time>
      </trkpt>
      <trkpt lat="44.24104" lon="6.70789">
        <ele>2323</ele>
        <time>2017-08-13T06:11:01Z</time>
      </trkpt>
      <trkpt lat="44.24114" lon="6.70786">
        <ele>2322.7</ele>
        <time>2017-08-13T06:11:10Z</time>
      </trkpt>
      <trkpt lat="44.24123" lon="6.70786">
        <ele>2321.7</ele>
        <time>2017-08-13T06:11:27Z</time>
      </trkpt>
      <trkpt lat="44.24132" lon="6.70784">
        <ele>2321.1</ele>
        <time>2017-08-13T06:11:39Z</time>
      </trkpt>
      <trkpt lat="44.24142" lon="6.70784">
        <ele>2320.6</ele>
        <time>2017-08-13T06:11:51Z</time>
      </trkpt>
      <trkpt lat="44.24151" lon="6.70778">
        <ele>2320.3</ele>
        <time>2017-08-13T06:11:59Z</time>
      </trkpt>
      <trkpt lat="44.24161" lon="6.70773">
        <ele>2319.8</ele>
        <time>2017-08-13T06:12:15Z</time>
      </trkpt>
      <trkpt lat="44.2417" lon="6.70769">
        <ele>2319.6</ele>
        <time>2017-08-13T06:12:21Z</time>
      </trkpt>
      <trkpt lat="44.24179" lon="6.7077">
        <ele>2319.3</ele>
        <time>2017-08-13T06:12:33Z</time>
      </trkpt>
      <trkpt lat="44.24189" lon="6.70772">
        <ele>2319.1</ele>
        <time>2017-08-13T06:12:43Z</time>
      </trkpt>
      <trkpt lat="44.24194" lon="6.70785">
        <ele>2318.9</ele>
        <time>2017-08-13T06:12:49Z</time>
      </trkpt>
      <trkpt lat="44.242" lon="6.70798">
        <ele>2318.8</ele>
        <time>2017-08-13T06:12:53Z</time>
      </trkpt>
      <trkpt lat="44.24208" lon="6.70806">
        <ele>2318.8</ele>
        <time>2017-08-13T06:12:56Z</time>
      </trkpt>
      <trkpt lat="44.24216" lon="6.70814">
        <ele>2318.3</ele>
        <time>2017-08-13T06:13:02Z</time>
      </trkpt>
      <trkpt lat="44.24223" lon="6.70826">
        <ele>2317.8</ele>
        <time>2017-08-13T06:13:06Z</time>
      </trkpt>
      <trkpt lat="44.24231" lon="6.70834">
        <ele>2317.5</ele>
        <time>2017-08-13T06:13:08Z</time>
      </trkpt>
      <trkpt lat="44.24239" lon="6.70848">
        <ele>2317.3</ele>
        <time>2017-08-13T06:13:11Z</time>
      </trkpt>
      <trkpt lat="44.24245" lon="6.70859">
        <ele>2317.1</ele>
        <time>2017-08-13T06:13:13Z</time>
      </trkpt>
      <trkpt lat="44.24251" lon="6.70871">
        <ele>2316.9</ele>
        <time>2017-08-13T06:13:15Z</time>
      </trkpt>
      <trkpt lat="44.24257" lon="6.70883">
        <ele>2316.8</ele>
        <time>2017-08-13T06:13:17Z</time>
      </trkpt>
      <trkpt lat="44.24261" lon="6.70895">
        <ele>2316.7</ele>
        <time>2017-08-13T06:13:19Z</time>
      </trkpt>
      <trkpt lat="44.24265" lon="6.7091">
        <ele>2316.5</ele>
        <time>2017-08-13T06:13:21Z</time>
      </trkpt>
      <trkpt lat="44.24256" lon="6.70919">
        <ele>2316.4</ele>
        <time>2017-08-13T06:13:24Z</time>
      </trkpt>
      <trkpt lat="44.24248" lon="6.70915">
        <ele>2316.4</ele>
        <time>2017-08-13T06:13:25Z</time>
      </trkpt>
      <trkpt lat="44.24254" lon="6.70926">
        <ele>2316.3</ele>
        <time>2017-08-13T06:13:32Z</time>
      </trkpt>
      <trkpt lat="44.24258" lon="6.70937">
        <ele>2316.2</ele>
        <time>2017-08-13T06:13:37Z</time>
      </trkpt>
      <trkpt lat="44.24267" lon="6.70934">
        <ele>2315.9</ele>
        <time>2017-08-13T06:13:51Z</time>
      </trkpt>
      <trkpt lat="44.2427" lon="6.70922">
        <ele>2315.7</ele>
        <time>2017-08-13T06:13:56Z</time>
      </trkpt>
      <trkpt lat="44.24271" lon="6.70908">
        <ele>2315.7</ele>
        <time>2017-08-13T06:13:59Z</time>
      </trkpt>
      <trkpt lat="44.24272" lon="6.70894">
        <ele>2315.6</ele>
        <time>2017-08-13T06:14:03Z</time>
      </trkpt>
      <trkpt lat="44.24275" lon="6.70881">
        <ele>2315.7</ele>
        <time>2017-08-13T06:14:08Z</time>
      </trkpt>
      <trkpt lat="44.24284" lon="6.70814">
        <ele>2315</ele>
        <time>2017-08-13T06:14:13Z</time>
      </trkpt>
      <trkpt lat="44.24287" lon="6.708">
        <ele>2315.8</ele>
        <time>2017-08-13T06:14:18Z</time>
      </trkpt>
      <trkpt lat="44.24293" lon="6.70791">
        <ele>2315.9</ele>
        <time>2017-08-13T06:14:26Z</time>
      </trkpt>
      <trkpt lat="44.243" lon="6.70781">
        <ele>2315.9</ele>
        <time>2017-08-13T06:14:32Z</time>
      </trkpt>
      <trkpt lat="44.24308" lon="6.70774">
        <ele>2315.8</ele>
        <time>2017-08-13T06:14:37Z</time>
      </trkpt>
      <trkpt lat="44.24313" lon="6.70764">
        <ele>2315.5</ele>
        <time>2017-08-13T06:14:55Z</time>
      </trkpt>
      <trkpt lat="44.24317" lon="6.70752">
        <ele>2315.3</ele>
        <time>2017-08-13T06:15:03Z</time>
      </trkpt>
      <trkpt lat="44.2432" lon="6.70739">
        <ele>2315.2</ele>
        <time>2017-08-13T06:15:11Z</time>
      </trkpt>
      <trkpt lat="44.24325" lon="6.70728">
        <ele>2314.9</ele>
        <time>2017-08-13T06:15:22Z</time>
      </trkpt>
      <trkpt lat="44.24331" lon="6.70716">
        <ele>2314.7</ele>
        <time>2017-08-13T06:15:30Z</time>
      </trkpt>
      <trkpt lat="44.24335" lon="6.70704">
        <ele>2314.5</ele>
        <time>2017-08-13T06:15:37Z</time>
      </trkpt>
      <trkpt lat="44.24343" lon="6.70696">
        <ele>2314.2</ele>
        <time>2017-08-13T06:15:46Z</time>
      </trkpt>
      <trkpt lat="44.24349" lon="6.70687">
        <ele>2313.8</ele>
        <time>2017-08-13T06:15:58Z</time>
      </trkpt>
      <trkpt lat="44.24356" lon="6.70676">
        <ele>2313.6</ele>
        <time>2017-08-13T06:16:06Z</time>
      </trkpt>
      <trkpt lat="44.24363" lon="6.70669">
        <ele>2313.4</ele>
        <time>2017-08-13T06:16:13Z</time>
      </trkpt>
      <trkpt lat="44.24369" lon="6.70657">
        <ele>2313.1</ele>
        <time>2017-08-13T06:16:23Z</time>
      </trkpt>
      <trkpt lat="44.24377" lon="6.70649">
        <ele>2312.9</ele>
        <time>2017-08-13T06:16:30Z</time>
      </trkpt>
      <trkpt lat="44.24386" lon="6.70645">
        <ele>2312.4</ele>
        <time>2017-08-13T06:16:43Z</time>
      </trkpt>
      <trkpt lat="44.24396" lon="6.70642">
        <ele>2311.8</ele>
        <time>2017-08-13T06:16:53Z</time>
      </trkpt>
      <trkpt lat="44.24406" lon="6.70639">
        <ele>2311.1</ele>
        <time>2017-08-13T06:17:02Z</time>
      </trkpt>
      <trkpt lat="44.24415" lon="6.70641">
        <ele>2310.8</ele>
        <time>2017-08-13T06:17:08Z</time>
      </trkpt>
      <trkpt lat="44.24425" lon="6.70643">
        <ele>2310.4</ele>
        <time>2017-08-13T06:17:17Z</time>
      </trkpt>
      <trkpt lat="44.24434" lon="6.70645">
        <ele>2310.1</ele>
        <time>2017-08-13T06:17:26Z</time>
      </trkpt>
      <trkpt lat="44.24443" lon="6.7065">
        <ele>2309.8</ele>
        <time>2017-08-13T06:17:35Z</time>
      </trkpt>
      <trkpt lat="44.2445" lon="6.70659">
        <ele>2309.6</ele>
        <time>2017-08-13T06:17:42Z</time>
      </trkpt>
      <trkpt lat="44.24456" lon="6.7067">
        <ele>2309.4</ele>
        <time>2017-08-13T06:17:50Z</time>
      </trkpt>
      <trkpt lat="44.24464" lon="6.70678">
        <ele>2309.2</ele>
        <time>2017-08-13T06:18:00Z</time>
      </trkpt>
      <trkpt lat="44.24472" lon="6.70688">
        <ele>2309.1</ele>
        <time>2017-08-13T06:18:08Z</time>
      </trkpt>
      <trkpt lat="44.24477" lon="6.70699">
        <ele>2309</ele>
        <time>2017-08-13T06:18:15Z</time>
      </trkpt>
      <trkpt lat="44.24483" lon="6.70712">
        <ele>2308.8</ele>
        <time>2017-08-13T06:18:25Z</time>
      </trkpt>
      <trkpt lat="44.24481" lon="6.70724">
        <ele>2308.6</ele>
        <time>2017-08-13T06:18:35Z</time>
      </trkpt>
      <trkpt lat="44.2449" lon="6.70724">
        <ele>2308.3</ele>
        <time>2017-08-13T06:18:49Z</time>
      </trkpt>
      <trkpt lat="44.24499" lon="6.70724">
        <ele>2308.1</ele>
        <time>2017-08-13T06:18:58Z</time>
      </trkpt>
      <trkpt lat="44.24508" lon="6.70725">
        <ele>2307.8</ele>
        <time>2017-08-13T06:19:08Z</time>
      </trkpt>
      <trkpt lat="44.24517" lon="6.70727">
        <ele>2307.6</ele>
        <time>2017-08-13T06:19:15Z</time>
      </trkpt>
      <trkpt lat="44.24527" lon="6.70729">
        <ele>2307.4</ele>
        <time>2017-08-13T06:19:25Z</time>
      </trkpt>
      <trkpt lat="44.24536" lon="6.70733">
        <ele>2307.3</ele>
        <time>2017-08-13T06:19:35Z</time>
      </trkpt>
      <trkpt lat="44.24545" lon="6.70738">
        <ele>2307.2</ele>
        <time>2017-08-13T06:19:45Z</time>
      </trkpt>
      <trkpt lat="44.24554" lon="6.70742">
        <ele>2307.1</ele>
        <time>2017-08-13T06:19:55Z</time>
      </trkpt>
      <trkpt lat="44.24564" lon="6.70743">
        <ele>2306.9</ele>
        <time>2017-08-13T06:20:06Z</time>
      </trkpt>
      <trkpt lat="44.24573" lon="6.70748">
        <ele>2306.9</ele>
        <time>2017-08-13T06:20:14Z</time>
      </trkpt>
      <trkpt lat="44.24583" lon="6.70745">
        <ele>2307</ele>
        <time>2017-08-13T06:20:24Z</time>
      </trkpt>
      <trkpt lat="44.24592" lon="6.70747">
        <ele>2307.1</ele>
        <time>2017-08-13T06:20:33Z</time>
      </trkpt>
      <trkpt lat="44.24596" lon="6.70759">
        <ele>2307.1</ele>
        <time>2017-08-13T06:20:41Z</time>
      </trkpt>
      <trkpt lat="44.24604" lon="6.70766">
        <ele>2307</ele>
        <time>2017-08-13T06:20:51Z</time>
      </trkpt>
      <trkpt lat="44.24612" lon="6.70773">
        <ele>2306.8</ele>
        <time>2017-08-13T06:21:02Z</time>
      </trkpt>
      <trkpt lat="44.24621" lon="6.70778">
        <ele>2306.6</ele>
        <time>2017-08-13T06:21:11Z</time>
      </trkpt>
      <trkpt lat="44.24627" lon="6.70789">
        <ele>2306.4</ele>
        <time>2017-08-13T06:21:20Z</time>
      </trkpt>
      <trkpt lat="44.24633" lon="6.70798">
        <ele>2306.1</ele>
        <time>2017-08-13T06:21:28Z</time>
      </trkpt>
      <trkpt lat="44.24639" lon="6.70809">
        <ele>2305.8</ele>
        <time>2017-08-13T06:21:36Z</time>
      </trkpt>
      <trkpt lat="44.24648" lon="6.70813">
        <ele>2305.5</ele>
        <time>2017-08-13T06:21:43Z</time>
      </trkpt>
      <trkpt lat="44.24656" lon="6.70821">
        <ele>2305.3</ele>
        <time>2017-08-13T06:21:52Z</time>
      </trkpt>
      <trkpt lat="44.24662" lon="6.70831">
        <ele>2304.9</ele>
        <time>2017-08-13T06:22:00Z</time>
      </trkpt>
      <trkpt lat="44.2467" lon="6.70839">
        <ele>2304.4</ele>
        <time>2017-08-13T06:22:09Z</time>
      </trkpt>
      <trkpt lat="44.2467" lon="6.70852">
        <ele>2303.8</ele>
        <time>2017-08-13T06:22:23Z</time>
      </trkpt>
      <trkpt lat="44.24679" lon="6.70855">
        <ele>2302.5</ele>
        <time>2017-08-13T06:22:59Z</time>
      </trkpt>
      <trkpt lat="44.24687" lon="6.70861">
        <ele>2300.5</ele>
        <time>2017-08-13T06:23:45Z</time>
      </trkpt>
      <trkpt lat="44.24695" lon="6.70868">
        <ele>2299.8</ele>
        <time>2017-08-13T06:24:04Z</time>
      </trkpt>
      <trkpt lat="44.24703" lon="6.70876">
        <ele>2298.8</ele>
        <time>2017-08-13T06:24:38Z</time>
      </trkpt>
      <trkpt lat="44.24708" lon="6.70888">
        <ele>2298.2</ele>
        <time>2017-08-13T06:24:54Z</time>
      </trkpt>
      <trkpt lat="44.24716" lon="6.70894">
        <ele>2297.9</ele>
        <time>2017-08-13T06:25:02Z</time>
      </trkpt>
      <trkpt lat="44.24725" lon="6.70897">
        <ele>2297.7</ele>
        <time>2017-08-13T06:25:10Z</time>
      </trkpt>
      <trkpt lat="44.24734" lon="6.70899">
        <ele>2297.4</ele>
        <time>2017-08-13T06:25:18Z</time>
      </trkpt>
      <trkpt lat="44.24743" lon="6.70896">
        <ele>2297.2</ele>
        <time>2017-08-13T06:25:26Z</time>
      </trkpt>
      <trkpt lat="44.24754" lon="6.70894">
        <ele>2297</ele>
        <time>2017-08-13T06:25:34Z</time>
      </trkpt>
      <trkpt lat="44.24764" lon="6.70891">
        <ele>2296.8</ele>
        <time>2017-08-13T06:25:41Z</time>
      </trkpt>
      <trkpt lat="44.24768" lon="6.70878">
        <ele>2296.6</ele>
        <time>2017-08-13T06:25:48Z</time>
      </trkpt>
      <trkpt lat="44.24774" lon="6.70867">
        <ele>2296.4</ele>
        <time>2017-08-13T06:25:56Z</time>
      </trkpt>
      <trkpt lat="44.24779" lon="6.70857">
        <ele>2296.2</ele>
        <time>2017-08-13T06:26:03Z</time>
      </trkpt>
      <trkpt lat="44.24788" lon="6.70854">
        <ele>2296</ele>
        <time>2017-08-13T06:26:14Z</time>
      </trkpt>
      <trkpt lat="44.24797" lon="6.70851">
        <ele>2295.6</ele>
        <time>2017-08-13T06:26:24Z</time>
      </trkpt>
      <trkpt lat="44.24806" lon="6.70852">
        <ele>2294.7</ele>
        <time>2017-08-13T06:26:45Z</time>
      </trkpt>
      <trkpt lat="44.24814" lon="6.70857">
        <ele>2294.4</ele>
        <time>2017-08-13T06:26:53Z</time>
      </trkpt>
      <trkpt lat="44.24823" lon="6.70861">
        <ele>2293.4</ele>
        <time>2017-08-13T06:27:13Z</time>
      </trkpt>
      <trkpt lat="44.24829" lon="6.70874">
        <ele>2292.8</ele>
        <time>2017-08-13T06:27:19Z</time>
      </trkpt>
      <trkpt lat="44.24836" lon="6.70884">
        <ele>2292.3</ele>
        <time>2017-08-13T06:27:24Z</time>
      </trkpt>
      <trkpt lat="44.24843" lon="6.70894">
        <ele>2291.5</ele>
        <time>2017-08-13T06:27:33Z</time>
      </trkpt>
      <trkpt lat="44.24852" lon="6.70896">
        <ele>2290.9</ele>
        <time>2017-08-13T06:27:42Z</time>
      </trkpt>
      <trkpt lat="44.2486" lon="6.70903">
        <ele>2290.2</ele>
        <time>2017-08-13T06:27:51Z</time>
      </trkpt>
      <trkpt lat="44.24865" lon="6.70915">
        <ele>2289.7</ele>
        <time>2017-08-13T06:27:57Z</time>
      </trkpt>
      <trkpt lat="44.24869" lon="6.70926">
        <ele>2288.6</ele>
        <time>2017-08-13T06:28:14Z</time>
      </trkpt>
      <trkpt lat="44.24869" lon="6.70913">
        <ele>2288.2</ele>
        <time>2017-08-13T06:28:25Z</time>
      </trkpt>
      <trkpt lat="44.24869" lon="6.70899">
        <ele>2288</ele>
        <time>2017-08-13T06:28:33Z</time>
      </trkpt>
      <trkpt lat="44.24868" lon="6.70886">
        <ele>2288.2</ele>
        <time>2017-08-13T06:28:42Z</time>
      </trkpt>
      <trkpt lat="44.24877" lon="6.70884">
        <ele>2289.2</ele>
        <time>2017-08-13T06:29:15Z</time>
      </trkpt>
      <trkpt lat="44.24886" lon="6.7088">
        <ele>2289.1</ele>
        <time>2017-08-13T06:29:22Z</time>
      </trkpt>
      <trkpt lat="44.24896" lon="6.70877">
        <ele>2289.2</ele>
        <time>2017-08-13T06:29:31Z</time>
      </trkpt>
      <trkpt lat="44.24906" lon="6.70878">
        <ele>2288.9</ele>
        <time>2017-08-13T06:30:54Z</time>
      </trkpt>
      <trkpt lat="44.24912" lon="6.70889">
        <ele>2289</ele>
        <time>2017-08-13T06:31:03Z</time>
      </trkpt>
      <trkpt lat="44.2492" lon="6.70895">
        <ele>2289.3</ele>
        <time>2017-08-13T06:31:11Z</time>
      </trkpt>
      <trkpt lat="44.24925" lon="6.70906">
        <ele>2290.7</ele>
        <time>2017-08-13T06:31:28Z</time>
      </trkpt>
      <trkpt lat="44.24934" lon="6.70913">
        <ele>2291.7</ele>
        <time>2017-08-13T06:31:39Z</time>
      </trkpt>
      <trkpt lat="44.24943" lon="6.70919">
        <ele>2292.9</ele>
        <time>2017-08-13T06:31:49Z</time>
      </trkpt>
      <trkpt lat="44.24951" lon="6.70927">
        <ele>2294.3</ele>
        <time>2017-08-13T06:32:01Z</time>
      </trkpt>
      <trkpt lat="44.24958" lon="6.70936">
        <ele>2295.3</ele>
        <time>2017-08-13T06:32:10Z</time>
      </trkpt>
      <trkpt lat="44.24966" lon="6.70944">
        <ele>2296.1</ele>
        <time>2017-08-13T06:32:19Z</time>
      </trkpt>
      <trkpt lat="44.24974" lon="6.70952">
        <ele>2296.8</ele>
        <time>2017-08-13T06:32:27Z</time>
      </trkpt>
      <trkpt lat="44.24982" lon="6.70957">
        <ele>2297.8</ele>
        <time>2017-08-13T06:32:35Z</time>
      </trkpt>
      <trkpt lat="44.24989" lon="6.70967">
        <ele>2299.1</ele>
        <time>2017-08-13T06:32:45Z</time>
      </trkpt>
      <trkpt lat="44.24996" lon="6.70977">
        <ele>2300.4</ele>
        <time>2017-08-13T06:32:55Z</time>
      </trkpt>
      <trkpt lat="44.25002" lon="6.70988">
        <ele>2302.1</ele>
        <time>2017-08-13T06:33:08Z</time>
      </trkpt>
      <trkpt lat="44.2501" lon="6.70996">
        <ele>2303.3</ele>
        <time>2017-08-13T06:33:18Z</time>
      </trkpt>
      <trkpt lat="44.25018" lon="6.71003">
        <ele>2304</ele>
        <time>2017-08-13T06:33:25Z</time>
      </trkpt>
      <trkpt lat="44.25025" lon="6.71013">
        <ele>2305.8</ele>
        <time>2017-08-13T06:33:40Z</time>
      </trkpt>
      <trkpt lat="44.25031" lon="6.71023">
        <ele>2307.1</ele>
        <time>2017-08-13T06:33:52Z</time>
      </trkpt>
      <trkpt lat="44.25036" lon="6.71034">
        <ele>2308.6</ele>
        <time>2017-08-13T06:34:06Z</time>
      </trkpt>
      <trkpt lat="44.25045" lon="6.71037">
        <ele>2309.2</ele>
        <time>2017-08-13T06:34:15Z</time>
      </trkpt>
      <trkpt lat="44.25055" lon="6.71039">
        <ele>2309.6</ele>
        <time>2017-08-13T06:34:21Z</time>
      </trkpt>
      <trkpt lat="44.25063" lon="6.71047">
        <ele>2310.4</ele>
        <time>2017-08-13T06:34:31Z</time>
      </trkpt>
      <trkpt lat="44.25068" lon="6.71058">
        <ele>2311.7</ele>
        <time>2017-08-13T06:34:43Z</time>
      </trkpt>
      <trkpt lat="44.25071" lon="6.7107">
        <ele>2313.6</ele>
        <time>2017-08-13T06:35:05Z</time>
      </trkpt>
      <trkpt lat="44.2508" lon="6.71075">
        <ele>2314</ele>
        <time>2017-08-13T06:35:13Z</time>
      </trkpt>
      <trkpt lat="44.25087" lon="6.71083">
        <ele>2315.3</ele>
        <time>2017-08-13T06:35:25Z</time>
      </trkpt>
      <trkpt lat="44.25097" lon="6.71085">
        <ele>2317.2</ele>
        <time>2017-08-13T06:36:17Z</time>
      </trkpt>
      <trkpt lat="44.25106" lon="6.71088">
        <ele>2317.1</ele>
        <time>2017-08-13T06:36:30Z</time>
      </trkpt>
      <trkpt lat="44.25113" lon="6.71096">
        <ele>2317.3</ele>
        <time>2017-08-13T06:36:38Z</time>
      </trkpt>
      <trkpt lat="44.25118" lon="6.71107">
        <ele>2317.5</ele>
        <time>2017-08-13T06:36:57Z</time>
      </trkpt>
      <trkpt lat="44.25122" lon="6.71118">
        <ele>2318.1</ele>
        <time>2017-08-13T06:37:09Z</time>
      </trkpt>
      <trkpt lat="44.25131" lon="6.71122">
        <ele>2318.6</ele>
        <time>2017-08-13T06:37:16Z</time>
      </trkpt>
      <trkpt lat="44.2514" lon="6.71126">
        <ele>2319.6</ele>
        <time>2017-08-13T06:37:24Z</time>
      </trkpt>
      <trkpt lat="44.25149" lon="6.71132">
        <ele>2320.7</ele>
        <time>2017-08-13T06:37:34Z</time>
      </trkpt>
      <trkpt lat="44.25158" lon="6.71135">
        <ele>2321.5</ele>
        <time>2017-08-13T06:37:41Z</time>
      </trkpt>
      <trkpt lat="44.25166" lon="6.71143">
        <ele>2322.7</ele>
        <time>2017-08-13T06:37:50Z</time>
      </trkpt>
      <trkpt lat="44.25174" lon="6.71149">
        <ele>2324.2</ele>
        <time>2017-08-13T06:38:00Z</time>
      </trkpt>
      <trkpt lat="44.25182" lon="6.71157">
        <ele>2325.7</ele>
        <time>2017-08-13T06:38:14Z</time>
      </trkpt>
      <trkpt lat="44.2519" lon="6.71161">
        <ele>2326.6</ele>
        <time>2017-08-13T06:38:24Z</time>
      </trkpt>
      <trkpt lat="44.252" lon="6.71164">
        <ele>2327.2</ele>
        <time>2017-08-13T06:38:33Z</time>
      </trkpt>
      <trkpt lat="44.25207" lon="6.71172">
        <ele>2327.8</ele>
        <time>2017-08-13T06:38:43Z</time>
      </trkpt>
      <trkpt lat="44.25213" lon="6.71181">
        <ele>2328.9</ele>
        <time>2017-08-13T06:38:55Z</time>
      </trkpt>
      <trkpt lat="44.25222" lon="6.71184">
        <ele>2330</ele>
        <time>2017-08-13T06:39:06Z</time>
      </trkpt>
      <trkpt lat="44.25229" lon="6.71174">
        <ele>2331</ele>
        <time>2017-08-13T06:39:14Z</time>
      </trkpt>
      <trkpt lat="44.25239" lon="6.71172">
        <ele>2331.7</ele>
        <time>2017-08-13T06:39:22Z</time>
      </trkpt>
      <trkpt lat="44.25245" lon="6.71182">
        <ele>2332.5</ele>
        <time>2017-08-13T06:39:32Z</time>
      </trkpt>
      <trkpt lat="44.25248" lon="6.71195">
        <ele>2333.2</ele>
        <time>2017-08-13T06:39:42Z</time>
      </trkpt>
      <trkpt lat="44.2525" lon="6.71208">
        <ele>2334.2</ele>
        <time>2017-08-13T06:39:52Z</time>
      </trkpt>
      <trkpt lat="44.25253" lon="6.71221">
        <ele>2335.3</ele>
        <time>2017-08-13T06:40:02Z</time>
      </trkpt>
      <trkpt lat="44.25254" lon="6.71234">
        <ele>2337.1</ele>
        <time>2017-08-13T06:40:12Z</time>
      </trkpt>
      <trkpt lat="44.25258" lon="6.71246">
        <ele>2338.1</ele>
        <time>2017-08-13T06:40:21Z</time>
      </trkpt>
      <trkpt lat="44.25256" lon="6.7126">
        <ele>2339.7</ele>
        <time>2017-08-13T06:40:32Z</time>
      </trkpt>
      <trkpt lat="44.25255" lon="6.71273">
        <ele>2340.8</ele>
        <time>2017-08-13T06:40:41Z</time>
      </trkpt>
      <trkpt lat="44.25257" lon="6.71286">
        <ele>2342.3</ele>
        <time>2017-08-13T06:40:53Z</time>
      </trkpt>
      <trkpt lat="44.25258" lon="6.713">
        <ele>2343.9</ele>
        <time>2017-08-13T06:41:04Z</time>
      </trkpt>
      <trkpt lat="44.25255" lon="6.71312">
        <ele>2345.1</ele>
        <time>2017-08-13T06:41:15Z</time>
      </trkpt>
      <trkpt lat="44.2526" lon="6.71324">
        <ele>2346.1</ele>
        <time>2017-08-13T06:41:23Z</time>
      </trkpt>
      <trkpt lat="44.25259" lon="6.71337">
        <ele>2348.6</ele>
        <time>2017-08-13T06:41:51Z</time>
      </trkpt>
      <trkpt lat="44.2526" lon="6.71351">
        <ele>2349.5</ele>
        <time>2017-08-13T06:42:01Z</time>
      </trkpt>
      <trkpt lat="44.25265" lon="6.71362">
        <ele>2350.8</ele>
        <time>2017-08-13T06:42:09Z</time>
      </trkpt>
      <trkpt lat="44.25268" lon="6.71374">
        <ele>2352.6</ele>
        <time>2017-08-13T06:42:22Z</time>
      </trkpt>
      <trkpt lat="44.25269" lon="6.71388">
        <ele>2355.1</ele>
        <time>2017-08-13T06:42:49Z</time>
      </trkpt>
      <trkpt lat="44.25273" lon="6.714">
        <ele>2358</ele>
        <time>2017-08-13T06:44:05Z</time>
      </trkpt>
      <trkpt lat="44.2528" lon="6.71408">
        <ele>2359.5</ele>
        <time>2017-08-13T06:45:48Z</time>
      </trkpt>
      <trkpt lat="44.25288" lon="6.71416">
        <ele>2361.4</ele>
        <time>2017-08-13T06:46:13Z</time>
      </trkpt>
      <trkpt lat="44.25297" lon="6.71417">
        <ele>2364.4</ele>
        <time>2017-08-13T06:46:31Z</time>
      </trkpt>
      <trkpt lat="44.25306" lon="6.71417">
        <ele>2367.8</ele>
        <time>2017-08-13T06:46:46Z</time>
      </trkpt>
      <trkpt lat="44.25316" lon="6.71422">
        <ele>2371.9</ele>
        <time>2017-08-13T06:47:05Z</time>
      </trkpt>
      <trkpt lat="44.25325" lon="6.71418">
        <ele>2377.1</ele>
        <time>2017-08-13T06:47:27Z</time>
      </trkpt>
      <trkpt lat="44.25335" lon="6.71418">
        <ele>2380.4</ele>
        <time>2017-08-13T06:47:42Z</time>
      </trkpt>
      <trkpt lat="44.25344" lon="6.71413">
        <ele>2386.3</ele>
        <time>2017-08-13T06:48:08Z</time>
      </trkpt>
      <trkpt lat="44.25352" lon="6.71417">
        <ele>2389.4</ele>
        <time>2017-08-13T06:48:23Z</time>
      </trkpt>
      <trkpt lat="44.25361" lon="6.71424">
        <ele>2392.3</ele>
        <time>2017-08-13T06:48:37Z</time>
      </trkpt>
      <trkpt lat="44.2537" lon="6.71427">
        <ele>2400.8</ele>
        <time>2017-08-13T06:49:17Z</time>
      </trkpt>
      <trkpt lat="44.25379" lon="6.7143">
        <ele>2404.2</ele>
        <time>2017-08-13T06:49:34Z</time>
      </trkpt>
      <trkpt lat="44.25391" lon="6.71424">
        <ele>2411.9</ele>
        <time>2017-08-13T06:50:09Z</time>
      </trkpt>
      <trkpt lat="44.254" lon="6.71418">
        <ele>2414.3</ele>
        <time>2017-08-13T06:50:19Z</time>
      </trkpt>
      <trkpt lat="44.25408" lon="6.71412">
        <ele>2416</ele>
        <time>2017-08-13T06:50:27Z</time>
      </trkpt>
      <trkpt lat="44.25413" lon="6.71401">
        <ele>2419.2</ele>
        <time>2017-08-13T06:50:43Z</time>
      </trkpt>
      <trkpt lat="44.2541" lon="6.71387">
        <ele>2420.2</ele>
        <time>2017-08-13T06:50:50Z</time>
      </trkpt>
      <trkpt lat="44.25413" lon="6.71375">
        <ele>2420.9</ele>
        <time>2017-08-13T06:50:56Z</time>
      </trkpt>
      <trkpt lat="44.25416" lon="6.71362">
        <ele>2422.2</ele>
        <time>2017-08-13T06:51:07Z</time>
      </trkpt>
      <trkpt lat="44.25416" lon="6.71349">
        <ele>2423.6</ele>
        <time>2017-08-13T06:51:16Z</time>
      </trkpt>
      <trkpt lat="44.25419" lon="6.71336">
        <ele>2425.2</ele>
        <time>2017-08-13T06:51:26Z</time>
      </trkpt>
      <trkpt lat="44.25424" lon="6.71326">
        <ele>2427.2</ele>
        <time>2017-08-13T06:51:36Z</time>
      </trkpt>
      <trkpt lat="44.25423" lon="6.71313">
        <ele>2428.5</ele>
        <time>2017-08-13T06:51:44Z</time>
      </trkpt>
      <trkpt lat="44.25428" lon="6.71302">
        <ele>2430</ele>
        <time>2017-08-13T06:51:54Z</time>
      </trkpt>
      <trkpt lat="44.25426" lon="6.71289">
        <ele>2431.5</ele>
        <time>2017-08-13T06:52:04Z</time>
      </trkpt>
      <trkpt lat="44.25426" lon="6.71276">
        <ele>2432.2</ele>
        <time>2017-08-13T06:52:11Z</time>
      </trkpt>
      <trkpt lat="44.25423" lon="6.71262">
        <ele>2432.7</ele>
        <time>2017-08-13T06:52:17Z</time>
      </trkpt>
      <trkpt lat="44.25419" lon="6.71251">
        <ele>2433.2</ele>
        <time>2017-08-13T06:52:24Z</time>
      </trkpt>
      <trkpt lat="44.25417" lon="6.71238">
        <ele>2433.9</ele>
        <time>2017-08-13T06:52:32Z</time>
      </trkpt>
      <trkpt lat="44.25414" lon="6.71225">
        <ele>2435</ele>
        <time>2017-08-13T06:52:42Z</time>
      </trkpt>
      <trkpt lat="44.25412" lon="6.71211">
        <ele>2436.1</ele>
        <time>2017-08-13T06:52:51Z</time>
      </trkpt>
      <trkpt lat="44.25405" lon="6.71202">
        <ele>2437.2</ele>
        <time>2017-08-13T06:53:00Z</time>
      </trkpt>
      <trkpt lat="44.25405" lon="6.71189">
        <ele>2438.2</ele>
        <time>2017-08-13T06:53:07Z</time>
      </trkpt>
      <trkpt lat="44.25404" lon="6.71175">
        <ele>2439.3</ele>
        <time>2017-08-13T06:53:15Z</time>
      </trkpt>
      <trkpt lat="44.25399" lon="6.71164">
        <ele>2440.1</ele>
        <time>2017-08-13T06:53:23Z</time>
      </trkpt>
      <trkpt lat="44.25395" lon="6.71152">
        <ele>2440.7</ele>
        <time>2017-08-13T06:53:30Z</time>
      </trkpt>
      <trkpt lat="44.25392" lon="6.7114">
        <ele>2441.5</ele>
        <time>2017-08-13T06:53:42Z</time>
      </trkpt>
      <trkpt lat="44.25384" lon="6.71134">
        <ele>2442.6</ele>
        <time>2017-08-13T06:53:53Z</time>
      </trkpt>
      <trkpt lat="44.25375" lon="6.71135">
        <ele>2443.4</ele>
        <time>2017-08-13T06:54:00Z</time>
      </trkpt>
      <trkpt lat="44.25369" lon="6.71124">
        <ele>2444</ele>
        <time>2017-08-13T06:54:06Z</time>
      </trkpt>
      <trkpt lat="44.25367" lon="6.7111">
        <ele>2444.6</ele>
        <time>2017-08-13T06:54:11Z</time>
      </trkpt>
      <trkpt lat="44.25361" lon="6.711">
        <ele>2445.5</ele>
        <time>2017-08-13T06:54:18Z</time>
      </trkpt>
      <trkpt lat="44.25351" lon="6.71097">
        <ele>2447.3</ele>
        <time>2017-08-13T06:54:32Z</time>
      </trkpt>
      <trkpt lat="44.25341" lon="6.71097">
        <ele>2448.5</ele>
        <time>2017-08-13T06:54:40Z</time>
      </trkpt>
      <trkpt lat="44.25339" lon="6.7108">
        <ele>2449.2</ele>
        <time>2017-08-13T06:54:45Z</time>
      </trkpt>
      <trkpt lat="44.25341" lon="6.71068">
        <ele>2449.8</ele>
        <time>2017-08-13T06:54:49Z</time>
      </trkpt>
      <trkpt lat="44.25343" lon="6.71055">
        <ele>2450.5</ele>
        <time>2017-08-13T06:54:54Z</time>
      </trkpt>
      <trkpt lat="44.25351" lon="6.71049">
        <ele>2452.3</ele>
        <time>2017-08-13T06:55:06Z</time>
      </trkpt>
      <trkpt lat="44.25358" lon="6.71039">
        <ele>2455.8</ele>
        <time>2017-08-13T06:55:25Z</time>
      </trkpt>
      <trkpt lat="44.25367" lon="6.71042">
        <ele>2459.2</ele>
        <time>2017-08-13T06:55:40Z</time>
      </trkpt>
      <trkpt lat="44.25376" lon="6.71037">
        <ele>2462.8</ele>
        <time>2017-08-13T06:55:56Z</time>
      </trkpt>
      <trkpt lat="44.25383" lon="6.71045">
        <ele>2465.9</ele>
        <time>2017-08-13T06:56:11Z</time>
      </trkpt>
      <trkpt lat="44.25388" lon="6.71057">
        <ele>2468</ele>
        <time>2017-08-13T06:56:22Z</time>
      </trkpt>
      <trkpt lat="44.25393" lon="6.71068">
        <ele>2469.6</ele>
        <time>2017-08-13T06:56:31Z</time>
      </trkpt>
      <trkpt lat="44.25397" lon="6.71054">
        <ele>2471.9</ele>
        <time>2017-08-13T06:56:45Z</time>
      </trkpt>
      <trkpt lat="44.25401" lon="6.71042">
        <ele>2474.5</ele>
        <time>2017-08-13T06:56:58Z</time>
      </trkpt>
      <trkpt lat="44.25409" lon="6.71045">
        <ele>2478.1</ele>
        <time>2017-08-13T06:57:14Z</time>
      </trkpt>
      <trkpt lat="44.25416" lon="6.71053">
        <ele>2481.7</ele>
        <time>2017-08-13T06:57:29Z</time>
      </trkpt>
      <trkpt lat="44.25422" lon="6.71064">
        <ele>2485.5</ele>
        <time>2017-08-13T06:57:46Z</time>
      </trkpt>
      <trkpt lat="44.25431" lon="6.71062">
        <ele>2492.4</ele>
        <time>2017-08-13T06:58:13Z</time>
      </trkpt>
      <trkpt lat="44.2544" lon="6.71064">
        <ele>2501.2</ele>
        <time>2017-08-13T06:58:47Z</time>
      </trkpt>
      <trkpt lat="44.25446" lon="6.71074">
        <ele>2504.6</ele>
        <time>2017-08-13T06:59:01Z</time>
      </trkpt>
      <trkpt lat="44.25454" lon="6.71067">
        <ele>2510.9</ele>
        <time>2017-08-13T06:59:38Z</time>
      </trkpt>
      <trkpt lat="44.25455" lon="6.71054">
        <ele>2511.8</ele>
        <time>2017-08-13T06:59:47Z</time>
      </trkpt>
      <trkpt lat="44.25457" lon="6.71041">
        <ele>2513.2</ele>
        <time>2017-08-13T06:59:56Z</time>
      </trkpt>
      <trkpt lat="44.25462" lon="6.71029">
        <ele>2515.1</ele>
        <time>2017-08-13T07:00:07Z</time>
      </trkpt>
      <trkpt lat="44.2546" lon="6.71043">
        <ele>2516.4</ele>
        <time>2017-08-13T07:00:15Z</time>
      </trkpt>
      <trkpt lat="44.25462" lon="6.71057">
        <ele>2517.6</ele>
        <time>2017-08-13T07:00:23Z</time>
      </trkpt>
      <trkpt lat="44.25463" lon="6.7107">
        <ele>2519</ele>
        <time>2017-08-13T07:00:32Z</time>
      </trkpt>
      <trkpt lat="44.25468" lon="6.71082">
        <ele>2520.6</ele>
        <time>2017-08-13T07:00:42Z</time>
      </trkpt>
      <trkpt lat="44.25473" lon="6.71092">
        <ele>2522.1</ele>
        <time>2017-08-13T07:00:51Z</time>
      </trkpt>
      <trkpt lat="44.2548" lon="6.71101">
        <ele>2524.5</ele>
        <time>2017-08-13T07:01:03Z</time>
      </trkpt>
      <trkpt lat="44.25485" lon="6.71112">
        <ele>2526.7</ele>
        <time>2017-08-13T07:01:13Z</time>
      </trkpt>
      <trkpt lat="44.25489" lon="6.71124">
        <ele>2529.1</ele>
        <time>2017-08-13T07:01:24Z</time>
      </trkpt>
      <trkpt lat="44.25494" lon="6.71135">
        <ele>2530.5</ele>
        <time>2017-08-13T07:01:32Z</time>
      </trkpt>
      <trkpt lat="44.25495" lon="6.71148">
        <ele>2532.4</ele>
        <time>2017-08-13T07:01:42Z</time>
      </trkpt>
      <trkpt lat="44.25502" lon="6.71137">
        <ele>2534.6</ele>
        <time>2017-08-13T07:01:53Z</time>
      </trkpt>
      <trkpt lat="44.25504" lon="6.71124">
        <ele>2536.3</ele>
        <time>2017-08-13T07:02:02Z</time>
      </trkpt>
      <trkpt lat="44.25501" lon="6.71111">
        <ele>2537.5</ele>
        <time>2017-08-13T07:02:09Z</time>
      </trkpt>
      <trkpt lat="44.25508" lon="6.7112">
        <ele>2540.2</ele>
        <time>2017-08-13T07:02:25Z</time>
      </trkpt>
      <trkpt lat="44.25514" lon="6.71131">
        <ele>2541.6</ele>
        <time>2017-08-13T07:02:33Z</time>
      </trkpt>
      <trkpt lat="44.25516" lon="6.71144">
        <ele>2543</ele>
        <time>2017-08-13T07:02:42Z</time>
      </trkpt>
      <trkpt lat="44.25523" lon="6.71136">
        <ele>2546.5</ele>
        <time>2017-08-13T07:03:13Z</time>
      </trkpt>
      <trkpt lat="44.25526" lon="6.71122">
        <ele>2547.4</ele>
        <time>2017-08-13T07:03:22Z</time>
      </trkpt>
      <trkpt lat="44.25527" lon="6.71109">
        <ele>2548.8</ele>
        <time>2017-08-13T07:03:31Z</time>
      </trkpt>
      <trkpt lat="44.25529" lon="6.71097">
        <ele>2550.2</ele>
        <time>2017-08-13T07:03:40Z</time>
      </trkpt>
      <trkpt lat="44.25533" lon="6.71084">
        <ele>2551.7</ele>
        <time>2017-08-13T07:03:50Z</time>
      </trkpt>
      <trkpt lat="44.25537" lon="6.71095">
        <ele>2555.3</ele>
        <time>2017-08-13T07:04:11Z</time>
      </trkpt>
      <trkpt lat="44.25542" lon="6.71107">
        <ele>2556.9</ele>
        <time>2017-08-13T07:04:21Z</time>
      </trkpt>
      <trkpt lat="44.25547" lon="6.71118">
        <ele>2558.3</ele>
        <time>2017-08-13T07:04:31Z</time>
      </trkpt>
      <trkpt lat="44.25553" lon="6.71127">
        <ele>2559.1</ele>
        <time>2017-08-13T07:04:38Z</time>
      </trkpt>
      <trkpt lat="44.2556" lon="6.71136">
        <ele>2560.7</ele>
        <time>2017-08-13T07:04:49Z</time>
      </trkpt>
      <trkpt lat="44.25568" lon="6.71142">
        <ele>2562.7</ele>
        <time>2017-08-13T07:05:00Z</time>
      </trkpt>
      <trkpt lat="44.25568" lon="6.71155">
        <ele>2565.1</ele>
        <time>2017-08-13T07:05:12Z</time>
      </trkpt>
      <trkpt lat="44.25572" lon="6.71166">
        <ele>2567.1</ele>
        <time>2017-08-13T07:05:23Z</time>
      </trkpt>
      <trkpt lat="44.25576" lon="6.71178">
        <ele>2569</ele>
        <time>2017-08-13T07:05:34Z</time>
      </trkpt>
      <trkpt lat="44.25581" lon="6.7119">
        <ele>2571</ele>
        <time>2017-08-13T07:05:45Z</time>
      </trkpt>
      <trkpt lat="44.2559" lon="6.71192">
        <ele>2574</ele>
        <time>2017-08-13T07:10:05Z</time>
      </trkpt>
      <trkpt lat="44.256" lon="6.71189">
        <ele>2574</ele>
        <time>2017-08-13T07:10:12Z</time>
      </trkpt>
      <trkpt lat="44.25607" lon="6.71199">
        <ele>2574.4</ele>
        <time>2017-08-13T07:10:21Z</time>
      </trkpt>
      <trkpt lat="44.25614" lon="6.71208">
        <ele>2575.2</ele>
        <time>2017-08-13T07:10:30Z</time>
      </trkpt>
      <trkpt lat="44.2562" lon="6.71217">
        <ele>2576.6</ele>
        <time>2017-08-13T07:10:39Z</time>
      </trkpt>
      <trkpt lat="44.25626" lon="6.71227">
        <ele>2578</ele>
        <time>2017-08-13T07:10:48Z</time>
      </trkpt>
      <trkpt lat="44.25632" lon="6.71236">
        <ele>2579.6</ele>
        <time>2017-08-13T07:10:57Z</time>
      </trkpt>
      <trkpt lat="44.2564" lon="6.71246">
        <ele>2581.8</ele>
        <time>2017-08-13T07:11:09Z</time>
      </trkpt>
      <trkpt lat="44.25645" lon="6.71256">
        <ele>2583.6</ele>
        <time>2017-08-13T07:11:20Z</time>
      </trkpt>
      <trkpt lat="44.25654" lon="6.71259">
        <ele>2585.5</ele>
        <time>2017-08-13T07:11:31Z</time>
      </trkpt>
      <trkpt lat="44.25663" lon="6.71258">
        <ele>2587.1</ele>
        <time>2017-08-13T07:11:40Z</time>
      </trkpt>
      <trkpt lat="44.25672" lon="6.71253">
        <ele>2588.8</ele>
        <time>2017-08-13T07:11:49Z</time>
      </trkpt>
      <trkpt lat="44.25679" lon="6.71246">
        <ele>2590.9</ele>
        <time>2017-08-13T07:12:00Z</time>
      </trkpt>
      <trkpt lat="44.25682" lon="6.71234">
        <ele>2593.1</ele>
        <time>2017-08-13T07:12:10Z</time>
      </trkpt>
      <trkpt lat="44.25684" lon="6.71221">
        <ele>2594.8</ele>
        <time>2017-08-13T07:12:19Z</time>
      </trkpt>
      <trkpt lat="44.25692" lon="6.71227">
        <ele>2597</ele>
        <time>2017-08-13T07:12:30Z</time>
      </trkpt>
      <trkpt lat="44.257" lon="6.71234">
        <ele>2598.9</ele>
        <time>2017-08-13T07:12:41Z</time>
      </trkpt>
      <trkpt lat="44.25709" lon="6.71235">
        <ele>2600.3</ele>
        <time>2017-08-13T07:12:50Z</time>
      </trkpt>
      <trkpt lat="44.25718" lon="6.71235">
        <ele>2602</ele>
        <time>2017-08-13T07:13:01Z</time>
      </trkpt>
      <trkpt lat="44.25727" lon="6.71239">
        <ele>2603.8</ele>
        <time>2017-08-13T07:13:11Z</time>
      </trkpt>
      <trkpt lat="44.25734" lon="6.71248">
        <ele>2606</ele>
        <time>2017-08-13T07:13:23Z</time>
      </trkpt>
      <trkpt lat="44.25744" lon="6.71251">
        <ele>2607.7</ele>
        <time>2017-08-13T07:13:34Z</time>
      </trkpt>
      <trkpt lat="44.25754" lon="6.71251">
        <ele>2609.4</ele>
        <time>2017-08-13T07:13:44Z</time>
      </trkpt>
      <trkpt lat="44.25762" lon="6.71245">
        <ele>2611.5</ele>
        <time>2017-08-13T07:13:55Z</time>
      </trkpt>
      <trkpt lat="44.2577" lon="6.71237">
        <ele>2613.4</ele>
        <time>2017-08-13T07:14:06Z</time>
      </trkpt>
      <trkpt lat="44.2578" lon="6.71241">
        <ele>2615.4</ele>
        <time>2017-08-13T07:14:16Z</time>
      </trkpt>
      <trkpt lat="44.25789" lon="6.71239">
        <ele>2617.6</ele>
        <time>2017-08-13T07:14:28Z</time>
      </trkpt>
      <trkpt lat="44.25797" lon="6.71231">
        <ele>2619.6</ele>
        <time>2017-08-13T07:14:40Z</time>
      </trkpt>
      <trkpt lat="44.25799" lon="6.71218">
        <ele>2621.2</ele>
        <time>2017-08-13T07:14:49Z</time>
      </trkpt>
      <trkpt lat="44.25808" lon="6.71223">
        <ele>2624.3</ele>
        <time>2017-08-13T07:15:07Z</time>
      </trkpt>
      <trkpt lat="44.25814" lon="6.71234">
        <ele>2626.1</ele>
        <time>2017-08-13T07:15:17Z</time>
      </trkpt>
      <trkpt lat="44.25823" lon="6.7124">
        <ele>2628.7</ele>
        <time>2017-08-13T07:15:31Z</time>
      </trkpt>
      <trkpt lat="44.25829" lon="6.7125">
        <ele>2630.5</ele>
        <time>2017-08-13T07:15:41Z</time>
      </trkpt>
      <trkpt lat="44.25836" lon="6.7126">
        <ele>2632</ele>
        <time>2017-08-13T07:15:50Z</time>
      </trkpt>
      <trkpt lat="44.25844" lon="6.71265">
        <ele>2634.2</ele>
        <time>2017-08-13T07:16:03Z</time>
      </trkpt>
      <trkpt lat="44.25846" lon="6.71251">
        <ele>2638.6</ele>
        <time>2017-08-13T07:16:51Z</time>
      </trkpt>
      <trkpt lat="44.25847" lon="6.71238">
        <ele>2640</ele>
        <time>2017-08-13T07:17:03Z</time>
      </trkpt>
      <trkpt lat="44.25847" lon="6.71225">
        <ele>2641.7</ele>
        <time>2017-08-13T07:17:12Z</time>
      </trkpt>
      <trkpt lat="44.25851" lon="6.71212">
        <ele>2643.9</ele>
        <time>2017-08-13T07:17:23Z</time>
      </trkpt>
      <trkpt lat="44.2585" lon="6.71198">
        <ele>2645.6</ele>
        <time>2017-08-13T07:17:32Z</time>
      </trkpt>
      <trkpt lat="44.2585" lon="6.71185">
        <ele>2647.5</ele>
        <time>2017-08-13T07:17:42Z</time>
      </trkpt>
      <trkpt lat="44.2585" lon="6.71172">
        <ele>2649.2</ele>
        <time>2017-08-13T07:17:52Z</time>
      </trkpt>
      <trkpt lat="44.25851" lon="6.7116">
        <ele>2653.3</ele>
        <time>2017-08-13T07:18:25Z</time>
      </trkpt>
      <trkpt lat="44.25854" lon="6.71147">
        <ele>2654.4</ele>
        <time>2017-08-13T07:18:39Z</time>
      </trkpt>
      <trkpt lat="44.25856" lon="6.71134">
        <ele>2656.5</ele>
        <time>2017-08-13T07:18:53Z</time>
      </trkpt>
      <trkpt lat="44.25854" lon="6.7112">
        <ele>2658.4</ele>
        <time>2017-08-13T07:19:03Z</time>
      </trkpt>
      <trkpt lat="44.25853" lon="6.71108">
        <ele>2659.9</ele>
        <time>2017-08-13T07:19:12Z</time>
      </trkpt>
      <trkpt lat="44.25854" lon="6.71094">
        <ele>2661.8</ele>
        <time>2017-08-13T07:19:24Z</time>
      </trkpt>
      <trkpt lat="44.25857" lon="6.71082">
        <ele>2663.8</ele>
        <time>2017-08-13T07:19:36Z</time>
      </trkpt>
      <trkpt lat="44.25859" lon="6.71069">
        <ele>2665.4</ele>
        <time>2017-08-13T07:19:45Z</time>
      </trkpt>
      <trkpt lat="44.25861" lon="6.71056">
        <ele>2667.3</ele>
        <time>2017-08-13T07:19:56Z</time>
      </trkpt>
      <trkpt lat="44.25862" lon="6.71044">
        <ele>2669.7</ele>
        <time>2017-08-13T07:20:07Z</time>
      </trkpt>
      <trkpt lat="44.25867" lon="6.71032">
        <ele>2671.8</ele>
        <time>2017-08-13T07:20:18Z</time>
      </trkpt>
      <trkpt lat="44.25871" lon="6.71019">
        <ele>2673.8</ele>
        <time>2017-08-13T07:20:28Z</time>
      </trkpt>
      <trkpt lat="44.25873" lon="6.71007">
        <ele>2676</ele>
        <time>2017-08-13T07:20:39Z</time>
      </trkpt>
      <trkpt lat="44.25876" lon="6.70994">
        <ele>2678.1</ele>
        <time>2017-08-13T07:20:50Z</time>
      </trkpt>
      <trkpt lat="44.25879" lon="6.70982">
        <ele>2680.5</ele>
        <time>2017-08-13T07:21:03Z</time>
      </trkpt>
      <trkpt lat="44.25886" lon="6.70974">
        <ele>2682.6</ele>
        <time>2017-08-13T07:21:15Z</time>
      </trkpt>
      <trkpt lat="44.25885" lon="6.70961">
        <ele>2684.6</ele>
        <time>2017-08-13T07:21:27Z</time>
      </trkpt>
      <trkpt lat="44.25883" lon="6.70948">
        <ele>2686.1</ele>
        <time>2017-08-13T07:21:36Z</time>
      </trkpt>
      <trkpt lat="44.25884" lon="6.70934">
        <ele>2687.7</ele>
        <time>2017-08-13T07:21:48Z</time>
      </trkpt>
      <trkpt lat="44.25887" lon="6.70921">
        <ele>2689.5</ele>
        <time>2017-08-13T07:21:59Z</time>
      </trkpt>
      <trkpt lat="44.25893" lon="6.70912">
        <ele>2691.3</ele>
        <time>2017-08-13T07:22:09Z</time>
      </trkpt>
      <trkpt lat="44.25893" lon="6.70899">
        <ele>2693.3</ele>
        <time>2017-08-13T07:22:21Z</time>
      </trkpt>
      <trkpt lat="44.25886" lon="6.70891">
        <ele>2694.9</ele>
        <time>2017-08-13T07:22:30Z</time>
      </trkpt>
      <trkpt lat="44.25878" lon="6.70882">
        <ele>2696.7</ele>
        <time>2017-08-13T07:22:40Z</time>
      </trkpt>
      <trkpt lat="44.25871" lon="6.70874">
        <ele>2698.5</ele>
        <time>2017-08-13T07:22:50Z</time>
      </trkpt>
      <trkpt lat="44.25879" lon="6.70868">
        <ele>2702.6</ele>
        <time>2017-08-13T07:23:13Z</time>
      </trkpt>
      <trkpt lat="44.25888" lon="6.70868">
        <ele>2704.2</ele>
        <time>2017-08-13T07:23:23Z</time>
      </trkpt>
      <trkpt lat="44.25898" lon="6.70871">
        <ele>2706.3</ele>
        <time>2017-08-13T07:23:35Z</time>
      </trkpt>
      <trkpt lat="44.25907" lon="6.7087">
        <ele>2707.7</ele>
        <time>2017-08-13T07:23:44Z</time>
      </trkpt>
      <trkpt lat="44.25916" lon="6.70874">
        <ele>2709.4</ele>
        <time>2017-08-13T07:23:54Z</time>
      </trkpt>
      <trkpt lat="44.25924" lon="6.70881">
        <ele>2711</ele>
        <time>2017-08-13T07:24:04Z</time>
      </trkpt>
      <trkpt lat="44.25932" lon="6.70887">
        <ele>2712.7</ele>
        <time>2017-08-13T07:24:14Z</time>
      </trkpt>
      <trkpt lat="44.25939" lon="6.70897">
        <ele>2714.5</ele>
        <time>2017-08-13T07:24:25Z</time>
      </trkpt>
      <trkpt lat="44.25947" lon="6.70902">
        <ele>2715.7</ele>
        <time>2017-08-13T07:24:32Z</time>
      </trkpt>
      <trkpt lat="44.25956" lon="6.70908">
        <ele>2717.7</ele>
        <time>2017-08-13T07:24:44Z</time>
      </trkpt>
      <trkpt lat="44.25961" lon="6.7092">
        <ele>2719.9</ele>
        <time>2017-08-13T07:24:56Z</time>
      </trkpt>
      <trkpt lat="44.25967" lon="6.70929">
        <ele>2721.1</ele>
        <time>2017-08-13T07:25:04Z</time>
      </trkpt>
      <trkpt lat="44.25973" lon="6.70939">
        <ele>2722.6</ele>
        <time>2017-08-13T07:25:14Z</time>
      </trkpt>
      <trkpt lat="44.25979" lon="6.70949">
        <ele>2724.4</ele>
        <time>2017-08-13T07:25:24Z</time>
      </trkpt>
      <trkpt lat="44.25988" lon="6.70955">
        <ele>2725.9</ele>
        <time>2017-08-13T07:25:33Z</time>
      </trkpt>
      <trkpt lat="44.25997" lon="6.70959">
        <ele>2727.4</ele>
        <time>2017-08-13T07:25:43Z</time>
      </trkpt>
      <trkpt lat="44.26006" lon="6.70963">
        <ele>2729.3</ele>
        <time>2017-08-13T07:25:55Z</time>
      </trkpt>
      <trkpt lat="44.26016" lon="6.70967">
        <ele>2731.2</ele>
        <time>2017-08-13T07:26:07Z</time>
      </trkpt>
      <trkpt lat="44.26025" lon="6.7097">
        <ele>2732.9</ele>
        <time>2017-08-13T07:26:16Z</time>
      </trkpt>
      <trkpt lat="44.26033" lon="6.70976">
        <ele>2734.7</ele>
        <time>2017-08-13T07:26:26Z</time>
      </trkpt>
      <trkpt lat="44.26042" lon="6.70978">
        <ele>2736.6</ele>
        <time>2017-08-13T07:26:37Z</time>
      </trkpt>
      <trkpt lat="44.26051" lon="6.70982">
        <ele>2738.3</ele>
        <time>2017-08-13T07:26:46Z</time>
      </trkpt>
      <trkpt lat="44.2606" lon="6.70988">
        <ele>2740.2</ele>
        <time>2017-08-13T07:26:57Z</time>
      </trkpt>
      <trkpt lat="44.26068" lon="6.70994">
        <ele>2741.5</ele>
        <time>2017-08-13T07:27:05Z</time>
      </trkpt>
      <trkpt lat="44.26077" lon="6.70999">
        <ele>2743.1</ele>
        <time>2017-08-13T07:27:14Z</time>
      </trkpt>
      <trkpt lat="44.26085" lon="6.71005">
        <ele>2744.9</ele>
        <time>2017-08-13T07:27:24Z</time>
      </trkpt>
      <trkpt lat="44.26091" lon="6.71016">
        <ele>2746.8</ele>
        <time>2017-08-13T07:27:36Z</time>
      </trkpt>
      <trkpt lat="44.26094" lon="6.71028">
        <ele>2748.5</ele>
        <time>2017-08-13T07:27:47Z</time>
      </trkpt>
      <trkpt lat="44.26091" lon="6.71041">
        <ele>2750.7</ele>
        <time>2017-08-13T07:27:59Z</time>
      </trkpt>
      <trkpt lat="44.26089" lon="6.71054">
        <ele>2752.4</ele>
        <time>2017-08-13T07:28:09Z</time>
      </trkpt>
      <trkpt lat="44.26088" lon="6.71068">
        <ele>2754.2</ele>
        <time>2017-08-13T07:28:19Z</time>
      </trkpt>
      <trkpt lat="44.26085" lon="6.71081">
        <ele>2755.4</ele>
        <time>2017-08-13T07:28:26Z</time>
      </trkpt>
      <trkpt lat="44.26082" lon="6.71094">
        <ele>2757.1</ele>
        <time>2017-08-13T07:28:35Z</time>
      </trkpt>
      <trkpt lat="44.26077" lon="6.71105">
        <ele>2758.7</ele>
        <time>2017-08-13T07:28:44Z</time>
      </trkpt>
      <trkpt lat="44.26082" lon="6.71116">
        <ele>2760</ele>
        <time>2017-08-13T07:28:51Z</time>
      </trkpt>
      <trkpt lat="44.26077" lon="6.71129">
        <ele>2761.9</ele>
        <time>2017-08-13T07:29:01Z</time>
      </trkpt>
      <trkpt lat="44.26072" lon="6.7114">
        <ele>2763.4</ele>
        <time>2017-08-13T07:29:10Z</time>
      </trkpt>
      <trkpt lat="44.26068" lon="6.71153">
        <ele>2765.1</ele>
        <time>2017-08-13T07:29:20Z</time>
      </trkpt>
      <trkpt lat="44.26064" lon="6.71164">
        <ele>2766.3</ele>
        <time>2017-08-13T07:29:28Z</time>
      </trkpt>
      <trkpt lat="44.26061" lon="6.71178">
        <ele>2767.8</ele>
        <time>2017-08-13T07:29:38Z</time>
      </trkpt>
      <trkpt lat="44.26057" lon="6.7119">
        <ele>2769.4</ele>
        <time>2017-08-13T07:29:48Z</time>
      </trkpt>
      <trkpt lat="44.26052" lon="6.71203">
        <ele>2770.5</ele>
        <time>2017-08-13T07:29:56Z</time>
      </trkpt>
      <trkpt lat="44.26047" lon="6.71215">
        <ele>2771.2</ele>
        <time>2017-08-13T07:30:03Z</time>
      </trkpt>
      <trkpt lat="44.26047" lon="6.71229">
        <ele>2772.2</ele>
        <time>2017-08-13T07:30:11Z</time>
      </trkpt>
      <trkpt lat="44.26055" lon="6.71234">
        <ele>2773.7</ele>
        <time>2017-08-13T07:30:21Z</time>
      </trkpt>
      <trkpt lat="44.26061" lon="6.71223">
        <ele>2775.2</ele>
        <time>2017-08-13T07:30:29Z</time>
      </trkpt>
      <trkpt lat="44.26068" lon="6.71213">
        <ele>2776.9</ele>
        <time>2017-08-13T07:30:37Z</time>
      </trkpt>
      <trkpt lat="44.26077" lon="6.71208">
        <ele>2778.5</ele>
        <time>2017-08-13T07:30:44Z</time>
      </trkpt>
      <trkpt lat="44.26085" lon="6.71201">
        <ele>2781.2</ele>
        <time>2017-08-13T07:30:55Z</time>
      </trkpt>
      <trkpt lat="44.26089" lon="6.7119">
        <ele>2783.6</ele>
        <time>2017-08-13T07:31:07Z</time>
      </trkpt>
      <trkpt lat="44.26097" lon="6.71183">
        <ele>2789</ele>
        <time>2017-08-13T07:31:33Z</time>
      </trkpt>
      <trkpt lat="44.26103" lon="6.71172">
        <ele>2789.9</ele>
        <time>2017-08-13T07:31:39Z</time>
      </trkpt>
      <trkpt lat="44.2611" lon="6.71164">
        <ele>2791</ele>
        <time>2017-08-13T07:31:46Z</time>
      </trkpt>
      <trkpt lat="44.26114" lon="6.71152">
        <ele>2792.7</ele>
        <time>2017-08-13T07:31:57Z</time>
      </trkpt>
      <trkpt lat="44.2612" lon="6.71142">
        <ele>2794.1</ele>
        <time>2017-08-13T07:32:06Z</time>
      </trkpt>
      <trkpt lat="44.26127" lon="6.71134">
        <ele>2795.8</ele>
        <time>2017-08-13T07:32:15Z</time>
      </trkpt>
      <trkpt lat="44.26134" lon="6.71122">
        <ele>2797.3</ele>
        <time>2017-08-13T07:32:23Z</time>
      </trkpt>
      <trkpt lat="44.26139" lon="6.71111">
        <ele>2798.4</ele>
        <time>2017-08-13T07:32:29Z</time>
      </trkpt>
      <trkpt lat="44.26149" lon="6.71108">
        <ele>2801.4</ele>
        <time>2017-08-13T07:32:45Z</time>
      </trkpt>
      <trkpt lat="44.26155" lon="6.71098">
        <ele>2803.5</ele>
        <time>2017-08-13T07:32:55Z</time>
      </trkpt>
      <trkpt lat="44.26162" lon="6.71088">
        <ele>2805.2</ele>
        <time>2017-08-13T07:33:04Z</time>
      </trkpt>
      <trkpt lat="44.26168" lon="6.71077">
        <ele>2806.8</ele>
        <time>2017-08-13T07:33:12Z</time>
      </trkpt>
      <trkpt lat="44.26173" lon="6.71065">
        <ele>2807.9</ele>
        <time>2017-08-13T07:33:19Z</time>
      </trkpt>
      <trkpt lat="44.26181" lon="6.71058">
        <ele>2809.7</ele>
        <time>2017-08-13T07:33:31Z</time>
      </trkpt>
      <trkpt lat="44.26183" lon="6.71046">
        <ele>2811</ele>
        <time>2017-08-13T07:33:39Z</time>
      </trkpt>
      <trkpt lat="44.26187" lon="6.71033">
        <ele>2812.2</ele>
        <time>2017-08-13T07:33:46Z</time>
      </trkpt>
      <trkpt lat="44.26196" lon="6.71028">
        <ele>2813.8</ele>
        <time>2017-08-13T07:33:56Z</time>
      </trkpt>
      <trkpt lat="44.26205" lon="6.71026">
        <ele>2816.4</ele>
        <time>2017-08-13T07:34:10Z</time>
      </trkpt>
      <trkpt lat="44.26214" lon="6.71018">
        <ele>2819</ele>
        <time>2017-08-13T07:34:22Z</time>
      </trkpt>
      <trkpt lat="44.2622" lon="6.71008">
        <ele>2820.6</ele>
        <time>2017-08-13T07:34:30Z</time>
      </trkpt>
      <trkpt lat="44.26227" lon="6.71">
        <ele>2823.3</ele>
        <time>2017-08-13T07:34:44Z</time>
      </trkpt>
      <trkpt lat="44.26232" lon="6.70988">
        <ele>2825.4</ele>
        <time>2017-08-13T07:34:54Z</time>
      </trkpt>
      <trkpt lat="44.26241" lon="6.70985">
        <ele>2827.8</ele>
        <time>2017-08-13T07:35:07Z</time>
      </trkpt>
      <trkpt lat="44.26249" lon="6.70977">
        <ele>2829.3</ele>
        <time>2017-08-13T07:35:15Z</time>
      </trkpt>
      <trkpt lat="44.26255" lon="6.70967">
        <ele>2831.4</ele>
        <time>2017-08-13T07:35:25Z</time>
      </trkpt>
      <trkpt lat="44.26262" lon="6.70958">
        <ele>2832.9</ele>
        <time>2017-08-13T07:35:32Z</time>
      </trkpt>
      <trkpt lat="44.26266" lon="6.70945">
        <ele>2834.5</ele>
        <time>2017-08-13T07:35:40Z</time>
      </trkpt>
      <trkpt lat="44.26273" lon="6.70937">
        <ele>2836.6</ele>
        <time>2017-08-13T07:35:50Z</time>
      </trkpt>
      <trkpt lat="44.26281" lon="6.7093">
        <ele>2839.3</ele>
        <time>2017-08-13T07:36:04Z</time>
      </trkpt>
      <trkpt lat="44.26285" lon="6.70918">
        <ele>2840.7</ele>
        <time>2017-08-13T07:36:12Z</time>
      </trkpt>
      <trkpt lat="44.26291" lon="6.70908">
        <ele>2842.3</ele>
        <time>2017-08-13T07:36:20Z</time>
      </trkpt>
      <trkpt lat="44.26293" lon="6.70895">
        <ele>2844.4</ele>
        <time>2017-08-13T07:36:31Z</time>
      </trkpt>
      <trkpt lat="44.26291" lon="6.70882">
        <ele>2846.3</ele>
        <time>2017-08-13T07:36:41Z</time>
      </trkpt>
      <trkpt lat="44.26295" lon="6.70871">
        <ele>2847.8</ele>
        <time>2017-08-13T07:36:49Z</time>
      </trkpt>
      <trkpt lat="44.263" lon="6.70859">
        <ele>2849.5</ele>
        <time>2017-08-13T07:36:58Z</time>
      </trkpt>
      <trkpt lat="44.26303" lon="6.70846">
        <ele>2851.9</ele>
        <time>2017-08-13T07:37:10Z</time>
      </trkpt>
      <trkpt lat="44.26308" lon="6.70835">
        <ele>2854.2</ele>
        <time>2017-08-13T07:37:26Z</time>
      </trkpt>
      <trkpt lat="44.26311" lon="6.70822">
        <ele>2855.3</ele>
        <time>2017-08-13T07:37:35Z</time>
      </trkpt>
      <trkpt lat="44.26317" lon="6.70812">
        <ele>2856.6</ele>
        <time>2017-08-13T07:37:44Z</time>
      </trkpt>
      <trkpt lat="44.26321" lon="6.70801">
        <ele>2858.4</ele>
        <time>2017-08-13T07:37:54Z</time>
      </trkpt>
      <trkpt lat="44.26325" lon="6.70789">
        <ele>2859.9</ele>
        <time>2017-08-13T07:38:04Z</time>
      </trkpt>
      <trkpt lat="44.2633" lon="6.70778">
        <ele>2861.5</ele>
        <time>2017-08-13T07:38:13Z</time>
      </trkpt>
      <trkpt lat="44.26334" lon="6.70765">
        <ele>2864</ele>
        <time>2017-08-13T07:38:26Z</time>
      </trkpt>
      <trkpt lat="44.26334" lon="6.70753">
        <ele>2866.1</ele>
        <time>2017-08-13T07:38:36Z</time>
      </trkpt>
      <trkpt lat="44.2633" lon="6.7074">
        <ele>2867.9</ele>
        <time>2017-08-13T07:38:45Z</time>
      </trkpt>
      <trkpt lat="44.26333" lon="6.70728">
        <ele>2869.7</ele>
        <time>2017-08-13T07:38:55Z</time>
      </trkpt>
      <trkpt lat="44.2633" lon="6.70715">
        <ele>2871.8</ele>
        <time>2017-08-13T07:39:05Z</time>
      </trkpt>
      <trkpt lat="44.26327" lon="6.70702">
        <ele>2873.3</ele>
        <time>2017-08-13T07:39:14Z</time>
      </trkpt>
      <trkpt lat="44.26324" lon="6.7069">
        <ele>2875.3</ele>
        <time>2017-08-13T07:39:26Z</time>
      </trkpt>
      <trkpt lat="44.26334" lon="6.70693">
        <ele>2879.2</ele>
        <time>2017-08-13T07:39:46Z</time>
      </trkpt>
      <trkpt lat="44.26341" lon="6.70705">
        <ele>2880.7</ele>
        <time>2017-08-13T07:39:55Z</time>
      </trkpt>
      <trkpt lat="44.26346" lon="6.70716">
        <ele>2882</ele>
        <time>2017-08-13T07:40:03Z</time>
      </trkpt>
      <trkpt lat="44.26351" lon="6.70727">
        <ele>2883.6</ele>
        <time>2017-08-13T07:40:12Z</time>
      </trkpt>
      <trkpt lat="44.26353" lon="6.7074">
        <ele>2884.9</ele>
        <time>2017-08-13T07:40:20Z</time>
      </trkpt>
      <trkpt lat="44.26358" lon="6.70752">
        <ele>2886.2</ele>
        <time>2017-08-13T07:40:28Z</time>
      </trkpt>
      <trkpt lat="44.26365" lon="6.70761">
        <ele>2887.5</ele>
        <time>2017-08-13T07:40:37Z</time>
      </trkpt>
      <trkpt lat="44.26371" lon="6.7077">
        <ele>2888.7</ele>
        <time>2017-08-13T07:40:46Z</time>
      </trkpt>
      <trkpt lat="44.26373" lon="6.70784">
        <ele>2890.1</ele>
        <time>2017-08-13T07:40:54Z</time>
      </trkpt>
      <trkpt lat="44.26375" lon="6.70797">
        <ele>2891.1</ele>
        <time>2017-08-13T07:41:01Z</time>
      </trkpt>
      <trkpt lat="44.2638" lon="6.70807">
        <ele>2892.2</ele>
        <time>2017-08-13T07:41:09Z</time>
      </trkpt>
      <trkpt lat="44.26383" lon="6.70821">
        <ele>2894</ele>
        <time>2017-08-13T07:41:19Z</time>
      </trkpt>
      <trkpt lat="44.26384" lon="6.70834">
        <ele>2895.5</ele>
        <time>2017-08-13T07:41:29Z</time>
      </trkpt>
      <trkpt lat="44.26387" lon="6.70846">
        <ele>2897.6</ele>
        <time>2017-08-13T07:41:42Z</time>
      </trkpt>
      <trkpt lat="44.26391" lon="6.70859">
        <ele>2899.6</ele>
        <time>2017-08-13T07:41:52Z</time>
      </trkpt>
      <trkpt lat="44.26396" lon="6.70869">
        <ele>2903.1</ele>
        <time>2017-08-13T07:42:15Z</time>
      </trkpt>
      <trkpt lat="44.26396" lon="6.70883">
        <ele>2904.6</ele>
        <time>2017-08-13T07:42:26Z</time>
      </trkpt>
      <trkpt lat="44.26398" lon="6.70895">
        <ele>2905.9</ele>
        <time>2017-08-13T07:42:34Z</time>
      </trkpt>
      <trkpt lat="44.26401" lon="6.70908">
        <ele>2907.2</ele>
        <time>2017-08-13T07:42:43Z</time>
      </trkpt>
      <trkpt lat="44.26408" lon="6.70899">
        <ele>2908.5</ele>
        <time>2017-08-13T07:42:51Z</time>
      </trkpt>
      <trkpt lat="44.26408" lon="6.70886">
        <ele>2910</ele>
        <time>2017-08-13T07:43:00Z</time>
      </trkpt>
      <trkpt lat="44.26412" lon="6.70875">
        <ele>2911.4</ele>
        <time>2017-08-13T07:43:09Z</time>
      </trkpt>
      <trkpt lat="44.26415" lon="6.70863">
        <ele>2913.1</ele>
        <time>2017-08-13T07:43:19Z</time>
      </trkpt>
      <trkpt lat="44.26416" lon="6.7085">
        <ele>2914.4</ele>
        <time>2017-08-13T07:43:28Z</time>
      </trkpt>
      <trkpt lat="44.26417" lon="6.70836">
        <ele>2916.8</ele>
        <time>2017-08-13T07:43:40Z</time>
      </trkpt>
      <trkpt lat="44.26418" lon="6.70823">
        <ele>2919.1</ele>
        <time>2017-08-13T07:43:52Z</time>
      </trkpt>
      <trkpt lat="44.26422" lon="6.70811">
        <ele>2921.1</ele>
        <time>2017-08-13T07:44:02Z</time>
      </trkpt>
      <trkpt lat="44.26425" lon="6.70797">
        <ele>2923.2</ele>
        <time>2017-08-13T07:44:14Z</time>
      </trkpt>
      <trkpt lat="44.26434" lon="6.70796">
        <ele>2926.1</ele>
        <time>2017-08-13T07:44:28Z</time>
      </trkpt>
      <trkpt lat="44.26441" lon="6.70786">
        <ele>2931.6</ele>
        <time>2017-08-13T07:44:56Z</time>
      </trkpt>
      <trkpt lat="44.26441" lon="6.70773">
        <ele>2932.9</ele>
        <time>2017-08-13T07:45:06Z</time>
      </trkpt>
      <trkpt lat="44.26442" lon="6.70759">
        <ele>2934.5</ele>
        <time>2017-08-13T07:45:16Z</time>
      </trkpt>
      <trkpt lat="44.26442" lon="6.70746">
        <ele>2938</ele>
        <time>2017-08-13T07:45:34Z</time>
      </trkpt>
      <trkpt lat="44.26446" lon="6.70735">
        <ele>2940.9</ele>
        <time>2017-08-13T07:45:48Z</time>
      </trkpt>
      <trkpt lat="44.26451" lon="6.70723">
        <ele>2945</ele>
        <time>2017-08-13T07:46:08Z</time>
      </trkpt>
      <trkpt lat="44.26454" lon="6.70711">
        <ele>2948.4</ele>
        <time>2017-08-13T07:46:23Z</time>
      </trkpt>
      <trkpt lat="44.26457" lon="6.70699">
        <ele>2953.2</ele>
        <time>2017-08-13T07:46:46Z</time>
      </trkpt>
      <trkpt lat="44.26461" lon="6.70687">
        <ele>2959.8</ele>
        <time>2017-08-13T07:47:14Z</time>
      </trkpt>
      <trkpt lat="44.26461" lon="6.70674">
        <ele>2962.2</ele>
        <time>2017-08-13T07:47:26Z</time>
      </trkpt>
      <trkpt lat="44.2646" lon="6.70661">
        <ele>2965.5</ele>
        <time>2017-08-13T07:47:41Z</time>
      </trkpt>
      <trkpt lat="44.26459" lon="6.70648">
        <ele>2969.4</ele>
        <time>2017-08-13T07:47:59Z</time>
      </trkpt>
      <trkpt lat="44.26459" lon="6.70635">
        <ele>2972.7</ele>
        <time>2017-08-13T07:48:14Z</time>
      </trkpt>
      <trkpt lat="44.26469" lon="6.70633">
        <ele>2980.2</ele>
        <time>2017-08-13T07:48:44Z</time>
      </trkpt>
      <trkpt lat="44.26478" lon="6.70631">
        <ele>2987</ele>
        <time>2017-08-13T07:49:15Z</time>
      </trkpt>
      <trkpt lat="44.26486" lon="6.70634">
        <ele>2994.4</ele>
        <time>2017-08-13T07:49:52Z</time>
      </trkpt>
      <trkpt lat="44.26486" lon="6.7062">
        <ele>2997.4</ele>
        <time>2017-08-13T07:50:09Z</time>
      </trkpt>
      <trkpt lat="44.26486" lon="6.70606">
        <ele>3002.1</ele>
        <time>2017-08-13T07:50:32Z</time>
      </trkpt>
      <trkpt lat="44.26493" lon="6.70598">
        <ele>3007.7</ele>
        <time>2017-08-13T07:51:00Z</time>
      </trkpt>
      <trkpt lat="44.26499" lon="6.70588">
        <ele>3013</ele>
        <time>2017-08-13T07:51:27Z</time>
      </trkpt>
      <trkpt lat="44.26508" lon="6.70584">
        <ele>3016.4</ele>
        <time>2017-08-13T07:51:43Z</time>
      </trkpt>
      <trkpt lat="44.26516" lon="6.70577">
        <ele>3018.1</ele>
        <time>2017-08-13T07:51:53Z</time>
      </trkpt>
      <trkpt lat="44.26509" lon="6.70566">
        <ele>3020.5</ele>
        <time>2017-08-13T07:52:18Z</time>
      </trkpt>
      <trkpt lat="44.26512" lon="6.70579">
        <ele>3020.8</ele>
        <time>2017-08-13T07:52:46Z</time>
      </trkpt>
      <trkpt lat="44.26521" lon="6.70587">
        <ele>3020.7</ele>
        <time>2017-08-13T07:52:52Z</time>
      </trkpt>
      <trkpt lat="44.26531" lon="6.70591">
        <ele>3020.5</ele>
        <time>2017-08-13T07:53:07Z</time>
      </trkpt>
      <trkpt lat="44.26526" lon="6.7058">
        <ele>3021.5</ele>
        <time>2017-08-13T07:53:55Z</time>
      </trkpt>
      <trkpt lat="44.26511" lon="6.70575">
        <ele>3022.1</ele>
        <time>2017-08-13T07:54:43Z</time>
      </trkpt>
      <trkpt lat="44.26505" lon="6.70587">
        <ele>3023.9</ele>
        <time>2017-08-13T07:55:15Z</time>
      </trkpt>
      <trkpt lat="44.26496" lon="6.70592">
        <ele>3024.5</ele>
        <time>2017-08-13T07:55:54Z</time>
      </trkpt>
      <trkpt lat="44.26488" lon="6.70597">
        <ele>3028.1</ele>
        <time>2017-08-13T08:15:12Z</time>
      </trkpt>
      <trkpt lat="44.26479" lon="6.70599">
        <ele>3023.2</ele>
        <time>2017-08-13T08:15:36Z</time>
      </trkpt>
      <trkpt lat="44.26481" lon="6.70612">
        <ele>3019.6</ele>
        <time>2017-08-13T08:15:51Z</time>
      </trkpt>
      <trkpt lat="44.26483" lon="6.70625">
        <ele>3014.4</ele>
        <time>2017-08-13T08:16:17Z</time>
      </trkpt>
      <trkpt lat="44.26474" lon="6.70619">
        <ele>3009.2</ele>
        <time>2017-08-13T08:16:53Z</time>
      </trkpt>
      <trkpt lat="44.26467" lon="6.70628">
        <ele>3005.3</ele>
        <time>2017-08-13T08:17:19Z</time>
      </trkpt>
      <trkpt lat="44.26458" lon="6.7063">
        <ele>3000.3</ele>
        <time>2017-08-13T08:17:45Z</time>
      </trkpt>
      <trkpt lat="44.26452" lon="6.7064">
        <ele>2991.5</ele>
        <time>2017-08-13T08:18:26Z</time>
      </trkpt>
      <trkpt lat="44.26452" lon="6.70653">
        <ele>2988.5</ele>
        <time>2017-08-13T08:18:39Z</time>
      </trkpt>
      <trkpt lat="44.26453" lon="6.70666">
        <ele>2985.9</ele>
        <time>2017-08-13T08:18:49Z</time>
      </trkpt>
      <trkpt lat="44.26454" lon="6.70679">
        <ele>2983.2</ele>
        <time>2017-08-13T08:18:58Z</time>
      </trkpt>
      <trkpt lat="44.26454" lon="6.70692">
        <ele>2980</ele>
        <time>2017-08-13T08:19:09Z</time>
      </trkpt>
      <trkpt lat="44.2645" lon="6.70703">
        <ele>2972.5</ele>
        <time>2017-08-13T08:19:37Z</time>
      </trkpt>
      <trkpt lat="44.26446" lon="6.70716">
        <ele>2967.8</ele>
        <time>2017-08-13T08:19:54Z</time>
      </trkpt>
      <trkpt lat="44.26447" lon="6.70728">
        <ele>2963.2</ele>
        <time>2017-08-13T08:20:11Z</time>
      </trkpt>
      <trkpt lat="44.2644" lon="6.70737">
        <ele>2958.3</ele>
        <time>2017-08-13T08:20:50Z</time>
      </trkpt>
      <trkpt lat="44.26438" lon="6.7075">
        <ele>2956.7</ele>
        <time>2017-08-13T08:20:59Z</time>
      </trkpt>
      <trkpt lat="44.26437" lon="6.70764">
        <ele>2953.9</ele>
        <time>2017-08-13T08:21:10Z</time>
      </trkpt>
      <trkpt lat="44.26437" lon="6.70777">
        <ele>2951.3</ele>
        <time>2017-08-13T08:21:20Z</time>
      </trkpt>
      <trkpt lat="44.26435" lon="6.70791">
        <ele>2947.9</ele>
        <time>2017-08-13T08:21:32Z</time>
      </trkpt>
      <trkpt lat="44.26427" lon="6.70797">
        <ele>2942.3</ele>
        <time>2017-08-13T08:21:54Z</time>
      </trkpt>
      <trkpt lat="44.26424" lon="6.70809">
        <ele>2939.9</ele>
        <time>2017-08-13T08:22:02Z</time>
      </trkpt>
      <trkpt lat="44.26421" lon="6.70822">
        <ele>2937.7</ele>
        <time>2017-08-13T08:22:12Z</time>
      </trkpt>
      <trkpt lat="44.26419" lon="6.70836">
        <ele>2936.1</ele>
        <time>2017-08-13T08:22:20Z</time>
      </trkpt>
      <trkpt lat="44.26415" lon="6.70848">
        <ele>2934.2</ele>
        <time>2017-08-13T08:22:30Z</time>
      </trkpt>
      <trkpt lat="44.26418" lon="6.70835">
        <ele>2928.4</ele>
        <time>2017-08-13T08:34:54Z</time>
      </trkpt>
      <trkpt lat="44.2642" lon="6.70822">
        <ele>2930.4</ele>
        <time>2017-08-13T08:35:15Z</time>
      </trkpt>
      <trkpt lat="44.26422" lon="6.70809">
        <ele>2931.6</ele>
        <time>2017-08-13T08:35:27Z</time>
      </trkpt>
      <trkpt lat="44.26425" lon="6.70796">
        <ele>2934.5</ele>
        <time>2017-08-13T08:35:52Z</time>
      </trkpt>
      <trkpt lat="44.26433" lon="6.70801">
        <ele>2937.8</ele>
        <time>2017-08-13T08:36:19Z</time>
      </trkpt>
      <trkpt lat="44.26437" lon="6.7079">
        <ele>2940.6</ele>
        <time>2017-08-13T08:36:42Z</time>
      </trkpt>
      <trkpt lat="44.26437" lon="6.70775">
        <ele>2942.8</ele>
        <time>2017-08-13T08:37:01Z</time>
      </trkpt>
      <trkpt lat="44.26437" lon="6.70762">
        <ele>2944</ele>
        <time>2017-08-13T08:37:14Z</time>
      </trkpt>
      <trkpt lat="44.26438" lon="6.7075">
        <ele>2950.4</ele>
        <time>2017-08-13T08:39:44Z</time>
      </trkpt>
      <trkpt lat="44.2644" lon="6.70737">
        <ele>2952.1</ele>
        <time>2017-08-13T08:39:59Z</time>
      </trkpt>
      <trkpt lat="44.26445" lon="6.70726">
        <ele>2957.3</ele>
        <time>2017-08-13T08:40:43Z</time>
      </trkpt>
      <trkpt lat="44.26445" lon="6.70713">
        <ele>2958.6</ele>
        <time>2017-08-13T08:40:55Z</time>
      </trkpt>
      <trkpt lat="44.26447" lon="6.70701">
        <ele>2961.8</ele>
        <time>2017-08-13T08:41:17Z</time>
      </trkpt>
      <trkpt lat="44.26453" lon="6.7069">
        <ele>2966.6</ele>
        <time>2017-08-13T08:41:46Z</time>
      </trkpt>
      <trkpt lat="44.26459" lon="6.70681">
        <ele>2973.4</ele>
        <time>2017-08-13T08:42:38Z</time>
      </trkpt>
      <trkpt lat="44.26457" lon="6.70668">
        <ele>2976.7</ele>
        <time>2017-08-13T08:43:42Z</time>
      </trkpt>
      <trkpt lat="44.26455" lon="6.70655">
        <ele>2977.8</ele>
        <time>2017-08-13T08:43:55Z</time>
      </trkpt>
      <trkpt lat="44.26453" lon="6.70643">
        <ele>2980.3</ele>
        <time>2017-08-13T08:44:10Z</time>
      </trkpt>
      <trkpt lat="44.26453" lon="6.70629">
        <ele>2987.9</ele>
        <time>2017-08-13T08:45:09Z</time>
      </trkpt>
      <trkpt lat="44.26462" lon="6.70628">
        <ele>2996</ele>
        <time>2017-08-13T08:46:35Z</time>
      </trkpt>
      <trkpt lat="44.26471" lon="6.70635">
        <ele>3002.7</ele>
        <time>2017-08-13T08:47:43Z</time>
      </trkpt>
      <trkpt lat="44.26482" lon="6.70632">
        <ele>3012</ele>
        <time>2017-08-13T08:50:13Z</time>
      </trkpt>
      <trkpt lat="44.26481" lon="6.70619">
        <ele>3012.9</ele>
        <time>2017-08-13T08:50:35Z</time>
      </trkpt>
      <trkpt lat="44.26478" lon="6.70605">
        <ele>3016.9</ele>
        <time>2017-08-13T08:51:05Z</time>
      </trkpt>
      <trkpt lat="44.26481" lon="6.70593">
        <ele>3025.2</ele>
        <time>2017-08-13T08:53:04Z</time>
      </trkpt>
      <trkpt lat="44.26494" lon="6.70588">
        <ele>3032.8</ele>
        <time>2017-08-13T08:54:07Z</time>
      </trkpt>
      <trkpt lat="44.26503" lon="6.70585">
        <ele>3040</ele>
        <time>2017-08-13T09:00:22Z</time>
      </trkpt>
      <trkpt lat="44.26509" lon="6.70575">
        <ele>3042.6</ele>
        <time>2017-08-13T09:11:22Z</time>
      </trkpt>
      <trkpt lat="44.26513" lon="6.70563">
        <ele>3042.3</ele>
        <time>2017-08-13T09:11:57Z</time>
      </trkpt>
      <trkpt lat="44.26507" lon="6.70572">
        <ele>3041.5</ele>
        <time>2017-08-13T09:12:52Z</time>
      </trkpt>
      <trkpt lat="44.26499" lon="6.70578">
        <ele>3041.5</ele>
        <time>2017-08-13T09:13:02Z</time>
      </trkpt>
      <trkpt lat="44.26491" lon="6.70586">
        <ele>3041.4</ele>
        <time>2017-08-13T09:13:13Z</time>
      </trkpt>
      <trkpt lat="44.26488" lon="6.70598">
        <ele>3039.9</ele>
        <time>2017-08-13T09:14:11Z</time>
      </trkpt>
      <trkpt lat="44.26482" lon="6.70608">
        <ele>3030.8</ele>
        <time>2017-08-13T09:15:45Z</time>
      </trkpt>
      <trkpt lat="44.26482" lon="6.70622">
        <ele>3029.8</ele>
        <time>2017-08-13T09:16:01Z</time>
      </trkpt>
      <trkpt lat="44.26482" lon="6.70635">
        <ele>3025.3</ele>
        <time>2017-08-13T09:16:47Z</time>
      </trkpt>
      <trkpt lat="44.26477" lon="6.70625">
        <ele>3019.6</ele>
        <time>2017-08-13T09:17:55Z</time>
      </trkpt>
      <trkpt lat="44.26474" lon="6.70638">
        <ele>3017.9</ele>
        <time>2017-08-13T09:18:18Z</time>
      </trkpt>
      <trkpt lat="44.26466" lon="6.70643">
        <ele>3014.1</ele>
        <time>2017-08-13T09:19:07Z</time>
      </trkpt>
      <trkpt lat="44.26459" lon="6.70629">
        <ele>3008</ele>
        <time>2017-08-13T09:20:07Z</time>
      </trkpt>
      <trkpt lat="44.26454" lon="6.7064">
        <ele>3003.8</ele>
        <time>2017-08-13T09:21:11Z</time>
      </trkpt>
      <trkpt lat="44.26453" lon="6.70653">
        <ele>3002.2</ele>
        <time>2017-08-13T09:21:21Z</time>
      </trkpt>
      <trkpt lat="44.26454" lon="6.70667">
        <ele>2997.1</ele>
        <time>2017-08-13T09:22:03Z</time>
      </trkpt>
      <trkpt lat="44.26455" lon="6.7068">
        <ele>2994.3</ele>
        <time>2017-08-13T09:22:19Z</time>
      </trkpt>
      <trkpt lat="44.26453" lon="6.70692">
        <ele>2989.7</ele>
        <time>2017-08-13T09:23:04Z</time>
      </trkpt>
      <trkpt lat="44.2645" lon="6.70705">
        <ele>2984.9</ele>
        <time>2017-08-13T09:23:56Z</time>
      </trkpt>
      <trkpt lat="44.26451" lon="6.70718">
        <ele>2981.4</ele>
        <time>2017-08-13T09:24:15Z</time>
      </trkpt>
      <trkpt lat="44.26448" lon="6.70731">
        <ele>2974.9</ele>
        <time>2017-08-13T09:25:04Z</time>
      </trkpt>
      <trkpt lat="44.26444" lon="6.70742">
        <ele>2972.4</ele>
        <time>2017-08-13T09:25:21Z</time>
      </trkpt>
      <trkpt lat="44.26443" lon="6.70755">
        <ele>2970.6</ele>
        <time>2017-08-13T09:25:31Z</time>
      </trkpt>
      <trkpt lat="44.2644" lon="6.70768">
        <ele>2968.1</ele>
        <time>2017-08-13T09:25:43Z</time>
      </trkpt>
      <trkpt lat="44.26439" lon="6.70781">
        <ele>2963.5</ele>
        <time>2017-08-13T09:26:05Z</time>
      </trkpt>
      <trkpt lat="44.26437" lon="6.70794">
        <ele>2960.5</ele>
        <time>2017-08-13T09:26:22Z</time>
      </trkpt>
      <trkpt lat="44.26428" lon="6.70798">
        <ele>2954.9</ele>
        <time>2017-08-13T09:26:52Z</time>
      </trkpt>
      <trkpt lat="44.26424" lon="6.70809">
        <ele>2949.1</ele>
        <time>2017-08-13T09:27:36Z</time>
      </trkpt>
      <trkpt lat="44.26423" lon="6.70822">
        <ele>2947.9</ele>
        <time>2017-08-13T09:27:47Z</time>
      </trkpt>
      <trkpt lat="44.26419" lon="6.70834">
        <ele>2944.3</ele>
        <time>2017-08-13T09:29:19Z</time>
      </trkpt>
      <trkpt lat="44.26417" lon="6.70847">
        <ele>2943.6</ele>
        <time>2017-08-13T09:29:31Z</time>
      </trkpt>
      <trkpt lat="44.26412" lon="6.70859">
        <ele>2941.8</ele>
        <time>2017-08-13T09:29:46Z</time>
      </trkpt>
      <trkpt lat="44.26409" lon="6.70871">
        <ele>2940.4</ele>
        <time>2017-08-13T09:29:55Z</time>
      </trkpt>
      <trkpt lat="44.26405" lon="6.70885">
        <ele>2938.4</ele>
        <time>2017-08-13T09:30:07Z</time>
      </trkpt>
      <trkpt lat="44.26404" lon="6.70898">
        <ele>2936.9</ele>
        <time>2017-08-13T09:30:16Z</time>
      </trkpt>
      <trkpt lat="44.26398" lon="6.70907">
        <ele>2935.8</ele>
        <time>2017-08-13T09:30:25Z</time>
      </trkpt>
      <trkpt lat="44.26397" lon="6.70893">
        <ele>2933.9</ele>
        <time>2017-08-13T09:30:38Z</time>
      </trkpt>
      <trkpt lat="44.26395" lon="6.7088">
        <ele>2932.6</ele>
        <time>2017-08-13T09:30:47Z</time>
      </trkpt>
      <trkpt lat="44.26393" lon="6.70868">
        <ele>2931.4</ele>
        <time>2017-08-13T09:30:56Z</time>
      </trkpt>
      <trkpt lat="44.26388" lon="6.70857">
        <ele>2929.6</ele>
        <time>2017-08-13T09:31:07Z</time>
      </trkpt>
      <trkpt lat="44.26384" lon="6.70845">
        <ele>2927.5</ele>
        <time>2017-08-13T09:31:18Z</time>
      </trkpt>
      <trkpt lat="44.26378" lon="6.70835">
        <ele>2923.9</ele>
        <time>2017-08-13T09:31:36Z</time>
      </trkpt>
      <trkpt lat="44.26373" lon="6.70824">
        <ele>2921.9</ele>
        <time>2017-08-13T09:31:46Z</time>
      </trkpt>
      <trkpt lat="44.26369" lon="6.70812">
        <ele>2920.1</ele>
        <time>2017-08-13T09:31:56Z</time>
      </trkpt>
      <trkpt lat="44.26363" lon="6.70802">
        <ele>2918.2</ele>
        <time>2017-08-13T09:32:09Z</time>
      </trkpt>
      <trkpt lat="44.26358" lon="6.70791">
        <ele>2916.2</ele>
        <time>2017-08-13T09:32:23Z</time>
      </trkpt>
      <trkpt lat="44.2635" lon="6.70796">
        <ele>2912.5</ele>
        <time>2017-08-13T09:32:43Z</time>
      </trkpt>
      <trkpt lat="44.26345" lon="6.70808">
        <ele>2910.6</ele>
        <time>2017-08-13T09:32:50Z</time>
      </trkpt>
      <trkpt lat="44.26337" lon="6.70815">
        <ele>2906.9</ele>
        <time>2017-08-13T09:33:00Z</time>
      </trkpt>
      <trkpt lat="44.26329" lon="6.70823">
        <ele>2903.2</ele>
        <time>2017-08-13T09:33:09Z</time>
      </trkpt>
      <trkpt lat="44.26323" lon="6.70833">
        <ele>2899.2</ele>
        <time>2017-08-13T09:33:19Z</time>
      </trkpt>
      <trkpt lat="44.26314" lon="6.70839">
        <ele>2896.1</ele>
        <time>2017-08-13T09:33:27Z</time>
      </trkpt>
      <trkpt lat="44.26305" lon="6.70846">
        <ele>2892.3</ele>
        <time>2017-08-13T09:33:36Z</time>
      </trkpt>
      <trkpt lat="44.26297" lon="6.70838">
        <ele>2888.4</ele>
        <time>2017-08-13T09:33:46Z</time>
      </trkpt>
      <trkpt lat="44.26289" lon="6.70845">
        <ele>2878.6</ele>
        <time>2017-08-13T09:37:24Z</time>
      </trkpt>
      <trkpt lat="44.26285" lon="6.70858">
        <ele>2877.3</ele>
        <time>2017-08-13T09:37:36Z</time>
      </trkpt>
      <trkpt lat="44.26284" lon="6.70872">
        <ele>2875.9</ele>
        <time>2017-08-13T09:37:48Z</time>
      </trkpt>
      <trkpt lat="44.26282" lon="6.70885">
        <ele>2874.9</ele>
        <time>2017-08-13T09:37:55Z</time>
      </trkpt>
      <trkpt lat="44.26281" lon="6.709">
        <ele>2873.5</ele>
        <time>2017-08-13T09:38:05Z</time>
      </trkpt>
      <trkpt lat="44.2628" lon="6.70913">
        <ele>2871.7</ele>
        <time>2017-08-13T09:38:16Z</time>
      </trkpt>
      <trkpt lat="44.26276" lon="6.70927">
        <ele>2870.1</ele>
        <time>2017-08-13T09:38:24Z</time>
      </trkpt>
      <trkpt lat="44.26273" lon="6.70939">
        <ele>2867.8</ele>
        <time>2017-08-13T09:38:35Z</time>
      </trkpt>
      <trkpt lat="44.26265" lon="6.70947">
        <ele>2865.5</ele>
        <time>2017-08-13T09:38:45Z</time>
      </trkpt>
      <trkpt lat="44.26258" lon="6.70955">
        <ele>2862.2</ele>
        <time>2017-08-13T09:39:00Z</time>
      </trkpt>
      <trkpt lat="44.26254" lon="6.70968">
        <ele>2860.6</ele>
        <time>2017-08-13T09:39:10Z</time>
      </trkpt>
      <trkpt lat="44.26248" lon="6.70979">
        <ele>2858.7</ele>
        <time>2017-08-13T09:39:20Z</time>
      </trkpt>
      <trkpt lat="44.26241" lon="6.70989">
        <ele>2856.9</ele>
        <time>2017-08-13T09:39:29Z</time>
      </trkpt>
      <trkpt lat="44.26235" lon="6.70999">
        <ele>2855.1</ele>
        <time>2017-08-13T09:39:38Z</time>
      </trkpt>
      <trkpt lat="44.2623" lon="6.7101">
        <ele>2853.4</ele>
        <time>2017-08-13T09:39:46Z</time>
      </trkpt>
      <trkpt lat="44.26223" lon="6.71018">
        <ele>2851.5</ele>
        <time>2017-08-13T09:39:54Z</time>
      </trkpt>
      <trkpt lat="44.26214" lon="6.71027">
        <ele>2849.2</ele>
        <time>2017-08-13T09:40:04Z</time>
      </trkpt>
      <trkpt lat="44.26207" lon="6.71035">
        <ele>2846.9</ele>
        <time>2017-08-13T09:40:14Z</time>
      </trkpt>
      <trkpt lat="44.26199" lon="6.71043">
        <ele>2844.1</ele>
        <time>2017-08-13T09:40:25Z</time>
      </trkpt>
      <trkpt lat="44.26193" lon="6.71053">
        <ele>2841.2</ele>
        <time>2017-08-13T09:40:35Z</time>
      </trkpt>
      <trkpt lat="44.26191" lon="6.71065">
        <ele>2839.2</ele>
        <time>2017-08-13T09:40:43Z</time>
      </trkpt>
      <trkpt lat="44.26186" lon="6.71076">
        <ele>2837.6</ele>
        <time>2017-08-13T09:40:52Z</time>
      </trkpt>
      <trkpt lat="44.26178" lon="6.71083">
        <ele>2834</ele>
        <time>2017-08-13T09:41:31Z</time>
      </trkpt>
      <trkpt lat="44.26171" lon="6.71092">
        <ele>2833.1</ele>
        <time>2017-08-13T09:41:42Z</time>
      </trkpt>
      <trkpt lat="44.26166" lon="6.71103">
        <ele>2832.3</ele>
        <time>2017-08-13T09:41:50Z</time>
      </trkpt>
      <trkpt lat="44.26161" lon="6.71114">
        <ele>2831.4</ele>
        <time>2017-08-13T09:41:59Z</time>
      </trkpt>
      <trkpt lat="44.26155" lon="6.71125">
        <ele>2830.3</ele>
        <time>2017-08-13T09:42:09Z</time>
      </trkpt>
      <trkpt lat="44.26147" lon="6.71129">
        <ele>2828.9</ele>
        <time>2017-08-13T09:42:18Z</time>
      </trkpt>
      <trkpt lat="44.26139" lon="6.71138">
        <ele>2827</ele>
        <time>2017-08-13T09:42:27Z</time>
      </trkpt>
      <trkpt lat="44.26134" lon="6.71149">
        <ele>2825.7</ele>
        <time>2017-08-13T09:42:33Z</time>
      </trkpt>
      <trkpt lat="44.26127" lon="6.71156">
        <ele>2823.6</ele>
        <time>2017-08-13T09:42:43Z</time>
      </trkpt>
      <trkpt lat="44.26118" lon="6.71161">
        <ele>2821.7</ele>
        <time>2017-08-13T09:42:53Z</time>
      </trkpt>
      <trkpt lat="44.26113" lon="6.71172">
        <ele>2817.5</ele>
        <time>2017-08-13T09:43:28Z</time>
      </trkpt>
      <trkpt lat="44.26108" lon="6.71184">
        <ele>2816</ele>
        <time>2017-08-13T09:43:41Z</time>
      </trkpt>
      <trkpt lat="44.261" lon="6.7119">
        <ele>2815.2</ele>
        <time>2017-08-13T09:43:50Z</time>
      </trkpt>
      <trkpt lat="44.2609" lon="6.71192">
        <ele>2814.6</ele>
        <time>2017-08-13T09:43:58Z</time>
      </trkpt>
      <trkpt lat="44.26081" lon="6.71193">
        <ele>2813.3</ele>
        <time>2017-08-13T09:44:08Z</time>
      </trkpt>
      <trkpt lat="44.26072" lon="6.71198">
        <ele>2811.8</ele>
        <time>2017-08-13T09:44:15Z</time>
      </trkpt>
      <trkpt lat="44.26068" lon="6.7121">
        <ele>2808.6</ele>
        <time>2017-08-13T09:44:30Z</time>
      </trkpt>
      <trkpt lat="44.26062" lon="6.71219">
        <ele>2806.6</ele>
        <time>2017-08-13T09:44:40Z</time>
      </trkpt>
      <trkpt lat="44.26054" lon="6.71229">
        <ele>2802.5</ele>
        <time>2017-08-13T09:44:53Z</time>
      </trkpt>
      <trkpt lat="44.26056" lon="6.71215">
        <ele>2796</ele>
        <time>2017-08-13T09:46:42Z</time>
      </trkpt>
      <trkpt lat="44.26058" lon="6.71202">
        <ele>2795</ele>
        <time>2017-08-13T09:46:51Z</time>
      </trkpt>
      <trkpt lat="44.26059" lon="6.7119">
        <ele>2792.9</ele>
        <time>2017-08-13T09:47:18Z</time>
      </trkpt>
      <trkpt lat="44.26061" lon="6.71177">
        <ele>2792.3</ele>
        <time>2017-08-13T09:47:52Z</time>
      </trkpt>
      <trkpt lat="44.26068" lon="6.71168">
        <ele>2791.8</ele>
        <time>2017-08-13T09:48:01Z</time>
      </trkpt>
      <trkpt lat="44.26068" lon="6.71154">
        <ele>2791.2</ele>
        <time>2017-08-13T09:48:10Z</time>
      </trkpt>
      <trkpt lat="44.26073" lon="6.71142">
        <ele>2790.3</ele>
        <time>2017-08-13T09:48:18Z</time>
      </trkpt>
      <trkpt lat="44.26077" lon="6.71131">
        <ele>2789.3</ele>
        <time>2017-08-13T09:48:28Z</time>
      </trkpt>
      <trkpt lat="44.2608" lon="6.71119">
        <ele>2787.9</ele>
        <time>2017-08-13T09:48:37Z</time>
      </trkpt>
      <trkpt lat="44.2608" lon="6.71105">
        <ele>2786.5</ele>
        <time>2017-08-13T09:48:46Z</time>
      </trkpt>
      <trkpt lat="44.2608" lon="6.71092">
        <ele>2784.8</ele>
        <time>2017-08-13T09:48:55Z</time>
      </trkpt>
      <trkpt lat="44.26084" lon="6.7108">
        <ele>2782.8</ele>
        <time>2017-08-13T09:49:05Z</time>
      </trkpt>
      <trkpt lat="44.26084" lon="6.71066">
        <ele>2781.1</ele>
        <time>2017-08-13T09:49:14Z</time>
      </trkpt>
      <trkpt lat="44.26087" lon="6.71053">
        <ele>2779.5</ele>
        <time>2017-08-13T09:49:23Z</time>
      </trkpt>
      <trkpt lat="44.26089" lon="6.7104">
        <ele>2777.8</ele>
        <time>2017-08-13T09:49:33Z</time>
      </trkpt>
      <trkpt lat="44.26092" lon="6.71028">
        <ele>2776.3</ele>
        <time>2017-08-13T09:49:42Z</time>
      </trkpt>
      <trkpt lat="44.26091" lon="6.71016">
        <ele>2774.7</ele>
        <time>2017-08-13T09:49:52Z</time>
      </trkpt>
      <trkpt lat="44.26084" lon="6.71005">
        <ele>2773</ele>
        <time>2017-08-13T09:50:02Z</time>
      </trkpt>
      <trkpt lat="44.26078" lon="6.70996">
        <ele>2771.1</ele>
        <time>2017-08-13T09:50:12Z</time>
      </trkpt>
      <trkpt lat="44.26069" lon="6.70992">
        <ele>2768.3</ele>
        <time>2017-08-13T09:50:27Z</time>
      </trkpt>
      <trkpt lat="44.2606" lon="6.70985">
        <ele>2767</ele>
        <time>2017-08-13T09:50:36Z</time>
      </trkpt>
      <trkpt lat="44.26051" lon="6.70981">
        <ele>2765.6</ele>
        <time>2017-08-13T09:50:45Z</time>
      </trkpt>
      <trkpt lat="44.26042" lon="6.70976">
        <ele>2763.7</ele>
        <time>2017-08-13T09:50:55Z</time>
      </trkpt>
      <trkpt lat="44.26033" lon="6.70974">
        <ele>2758.4</ele>
        <time>2017-08-13T09:52:02Z</time>
      </trkpt>
      <trkpt lat="44.26023" lon="6.70973">
        <ele>2758</ele>
        <time>2017-08-13T09:52:10Z</time>
      </trkpt>
      <trkpt lat="44.26015" lon="6.70968">
        <ele>2757.2</ele>
        <time>2017-08-13T09:52:19Z</time>
      </trkpt>
      <trkpt lat="44.26007" lon="6.70962">
        <ele>2755.8</ele>
        <time>2017-08-13T09:52:29Z</time>
      </trkpt>
      <trkpt lat="44.25997" lon="6.70963">
        <ele>2754.2</ele>
        <time>2017-08-13T09:52:39Z</time>
      </trkpt>
      <trkpt lat="44.25988" lon="6.70957">
        <ele>2752.4</ele>
        <time>2017-08-13T09:52:51Z</time>
      </trkpt>
      <trkpt lat="44.25979" lon="6.70953">
        <ele>2750.9</ele>
        <time>2017-08-13T09:53:01Z</time>
      </trkpt>
      <trkpt lat="44.25971" lon="6.70947">
        <ele>2748.7</ele>
        <time>2017-08-13T09:53:13Z</time>
      </trkpt>
      <trkpt lat="44.25968" lon="6.70934">
        <ele>2747.1</ele>
        <time>2017-08-13T09:53:23Z</time>
      </trkpt>
      <trkpt lat="44.25962" lon="6.70924">
        <ele>2746</ele>
        <time>2017-08-13T09:53:32Z</time>
      </trkpt>
      <trkpt lat="44.25955" lon="6.70915">
        <ele>2744.5</ele>
        <time>2017-08-13T09:53:41Z</time>
      </trkpt>
      <trkpt lat="44.25949" lon="6.70904">
        <ele>2742.8</ele>
        <time>2017-08-13T09:53:51Z</time>
      </trkpt>
      <trkpt lat="44.25941" lon="6.70897">
        <ele>2741.1</ele>
        <time>2017-08-13T09:54:01Z</time>
      </trkpt>
      <trkpt lat="44.25933" lon="6.7089">
        <ele>2739.2</ele>
        <time>2017-08-13T09:54:11Z</time>
      </trkpt>
      <trkpt lat="44.25926" lon="6.70883">
        <ele>2737.6</ele>
        <time>2017-08-13T09:54:19Z</time>
      </trkpt>
      <trkpt lat="44.25918" lon="6.70876">
        <ele>2735.8</ele>
        <time>2017-08-13T09:54:30Z</time>
      </trkpt>
      <trkpt lat="44.25909" lon="6.7087">
        <ele>2734</ele>
        <time>2017-08-13T09:54:41Z</time>
      </trkpt>
      <trkpt lat="44.259" lon="6.70873">
        <ele>2732.1</ele>
        <time>2017-08-13T09:54:53Z</time>
      </trkpt>
      <trkpt lat="44.25891" lon="6.7087">
        <ele>2730.5</ele>
        <time>2017-08-13T09:55:02Z</time>
      </trkpt>
      <trkpt lat="44.25882" lon="6.7087">
        <ele>2729</ele>
        <time>2017-08-13T09:55:11Z</time>
      </trkpt>
      <trkpt lat="44.25873" lon="6.70866">
        <ele>2727.3</ele>
        <time>2017-08-13T09:55:20Z</time>
      </trkpt>
      <trkpt lat="44.25863" lon="6.70866">
        <ele>2725.4</ele>
        <time>2017-08-13T09:55:30Z</time>
      </trkpt>
      <trkpt lat="44.25869" lon="6.70875">
        <ele>2723.9</ele>
        <time>2017-08-13T09:55:39Z</time>
      </trkpt>
      <trkpt lat="44.25876" lon="6.70885">
        <ele>2722.3</ele>
        <time>2017-08-13T09:55:48Z</time>
      </trkpt>
      <trkpt lat="44.25883" lon="6.70895">
        <ele>2720.2</ele>
        <time>2017-08-13T09:56:00Z</time>
      </trkpt>
      <trkpt lat="44.25889" lon="6.70904">
        <ele>2718.6</ele>
        <time>2017-08-13T09:56:09Z</time>
      </trkpt>
      <trkpt lat="44.25887" lon="6.70917">
        <ele>2716.4</ele>
        <time>2017-08-13T09:56:21Z</time>
      </trkpt>
      <trkpt lat="44.25884" lon="6.70929">
        <ele>2714</ele>
        <time>2017-08-13T09:56:34Z</time>
      </trkpt>
      <trkpt lat="44.25882" lon="6.70942">
        <ele>2712.2</ele>
        <time>2017-08-13T09:56:46Z</time>
      </trkpt>
      <trkpt lat="44.25882" lon="6.70956">
        <ele>2710.5</ele>
        <time>2017-08-13T09:56:59Z</time>
      </trkpt>
      <trkpt lat="44.25883" lon="6.70969">
        <ele>2709.1</ele>
        <time>2017-08-13T09:57:09Z</time>
      </trkpt>
      <trkpt lat="44.2588" lon="6.70981">
        <ele>2706</ele>
        <time>2017-08-13T09:57:32Z</time>
      </trkpt>
      <trkpt lat="44.25873" lon="6.70991">
        <ele>2704.3</ele>
        <time>2017-08-13T09:57:44Z</time>
      </trkpt>
      <trkpt lat="44.2587" lon="6.71004">
        <ele>2702.4</ele>
        <time>2017-08-13T09:57:55Z</time>
      </trkpt>
      <trkpt lat="44.2587" lon="6.71018">
        <ele>2700.9</ele>
        <time>2017-08-13T09:58:05Z</time>
      </trkpt>
      <trkpt lat="44.25865" lon="6.7103">
        <ele>2698.1</ele>
        <time>2017-08-13T09:58:24Z</time>
      </trkpt>
      <trkpt lat="44.25858" lon="6.7104">
        <ele>2696.5</ele>
        <time>2017-08-13T09:58:36Z</time>
      </trkpt>
      <trkpt lat="44.25855" lon="6.71052">
        <ele>2695.2</ele>
        <time>2017-08-13T09:58:45Z</time>
      </trkpt>
      <trkpt lat="44.25851" lon="6.71065">
        <ele>2693.6</ele>
        <time>2017-08-13T09:58:56Z</time>
      </trkpt>
      <trkpt lat="44.25848" lon="6.71078">
        <ele>2691.6</ele>
        <time>2017-08-13T09:59:07Z</time>
      </trkpt>
      <trkpt lat="44.25846" lon="6.71092">
        <ele>2689.3</ele>
        <time>2017-08-13T09:59:18Z</time>
      </trkpt>
      <trkpt lat="44.25844" lon="6.71106">
        <ele>2686.4</ele>
        <time>2017-08-13T09:59:32Z</time>
      </trkpt>
      <trkpt lat="44.25846" lon="6.71118">
        <ele>2684.4</ele>
        <time>2017-08-13T09:59:43Z</time>
      </trkpt>
      <trkpt lat="44.25847" lon="6.71132">
        <ele>2682.6</ele>
        <time>2017-08-13T09:59:54Z</time>
      </trkpt>
      <trkpt lat="44.25844" lon="6.71145">
        <ele>2680.8</ele>
        <time>2017-08-13T10:00:09Z</time>
      </trkpt>
      <trkpt lat="44.25844" lon="6.71158">
        <ele>2679</ele>
        <time>2017-08-13T10:00:19Z</time>
      </trkpt>
      <trkpt lat="44.25842" lon="6.71171">
        <ele>2676.8</ele>
        <time>2017-08-13T10:00:30Z</time>
      </trkpt>
      <trkpt lat="44.25843" lon="6.71184">
        <ele>2675.4</ele>
        <time>2017-08-13T10:00:38Z</time>
      </trkpt>
      <trkpt lat="44.25842" lon="6.71197">
        <ele>2673.2</ele>
        <time>2017-08-13T10:00:50Z</time>
      </trkpt>
      <trkpt lat="44.25842" lon="6.71211">
        <ele>2671.2</ele>
        <time>2017-08-13T10:01:01Z</time>
      </trkpt>
      <trkpt lat="44.2584" lon="6.71224">
        <ele>2669.1</ele>
        <time>2017-08-13T10:01:13Z</time>
      </trkpt>
      <trkpt lat="44.25839" lon="6.71237">
        <ele>2667</ele>
        <time>2017-08-13T10:01:24Z</time>
      </trkpt>
      <trkpt lat="44.2584" lon="6.7125">
        <ele>2664.4</ele>
        <time>2017-08-13T10:01:37Z</time>
      </trkpt>
      <trkpt lat="44.25844" lon="6.71261">
        <ele>2661.9</ele>
        <time>2017-08-13T10:01:52Z</time>
      </trkpt>
      <trkpt lat="44.25847" lon="6.71273">
        <ele>2658.2</ele>
        <time>2017-08-13T10:02:15Z</time>
      </trkpt>
      <trkpt lat="44.25854" lon="6.71284">
        <ele>2656.7</ele>
        <time>2017-08-13T10:02:25Z</time>
      </trkpt>
      <trkpt lat="44.25861" lon="6.71292">
        <ele>2655.5</ele>
        <time>2017-08-13T10:02:37Z</time>
      </trkpt>
      <trkpt lat="44.25869" lon="6.71299">
        <ele>2655.5</ele>
        <time>2017-08-13T10:02:49Z</time>
      </trkpt>
      <trkpt lat="44.25877" lon="6.71306">
        <ele>2657.9</ele>
        <time>2017-08-13T10:04:10Z</time>
      </trkpt>
      <trkpt lat="44.25883" lon="6.71317">
        <ele>2658.3</ele>
        <time>2017-08-13T10:04:17Z</time>
      </trkpt>
      <trkpt lat="44.25889" lon="6.71327">
        <ele>2658.8</ele>
        <time>2017-08-13T10:04:28Z</time>
      </trkpt>
      <trkpt lat="44.25892" lon="6.7134">
        <ele>2659.4</ele>
        <time>2017-08-13T10:04:38Z</time>
      </trkpt>
      <trkpt lat="44.25895" lon="6.71352">
        <ele>2659.7</ele>
        <time>2017-08-13T10:04:45Z</time>
      </trkpt>
      <trkpt lat="44.259" lon="6.71363">
        <ele>2660.2</ele>
        <time>2017-08-13T10:04:55Z</time>
      </trkpt>
      <trkpt lat="44.25906" lon="6.71374">
        <ele>2661.1</ele>
        <time>2017-08-13T10:05:07Z</time>
      </trkpt>
      <trkpt lat="44.25912" lon="6.71385">
        <ele>2662.2</ele>
        <time>2017-08-13T10:05:19Z</time>
      </trkpt>
      <trkpt lat="44.25915" lon="6.71397">
        <ele>2663</ele>
        <time>2017-08-13T10:05:31Z</time>
      </trkpt>
      <trkpt lat="44.25917" lon="6.7141">
        <ele>2663.4</ele>
        <time>2017-08-13T10:05:41Z</time>
      </trkpt>
      <trkpt lat="44.25921" lon="6.71422">
        <ele>2663.8</ele>
        <time>2017-08-13T10:05:51Z</time>
      </trkpt>
      <trkpt lat="44.25926" lon="6.71433">
        <ele>2664.5</ele>
        <time>2017-08-13T10:06:02Z</time>
      </trkpt>
      <trkpt lat="44.25931" lon="6.71445">
        <ele>2665.8</ele>
        <time>2017-08-13T10:06:14Z</time>
      </trkpt>
      <trkpt lat="44.25934" lon="6.71457">
        <ele>2666.6</ele>
        <time>2017-08-13T10:06:23Z</time>
      </trkpt>
      <trkpt lat="44.25938" lon="6.71469">
        <ele>2667.4</ele>
        <time>2017-08-13T10:06:31Z</time>
      </trkpt>
      <trkpt lat="44.25941" lon="6.71482">
        <ele>2668.9</ele>
        <time>2017-08-13T10:06:45Z</time>
      </trkpt>
      <trkpt lat="44.25945" lon="6.71494">
        <ele>2670.4</ele>
        <time>2017-08-13T10:06:57Z</time>
      </trkpt>
      <trkpt lat="44.25945" lon="6.71507">
        <ele>2670.9</ele>
        <time>2017-08-13T10:07:05Z</time>
      </trkpt>
      <trkpt lat="44.25944" lon="6.7152">
        <ele>2671.7</ele>
        <time>2017-08-13T10:07:16Z</time>
      </trkpt>
      <trkpt lat="44.25944" lon="6.71534">
        <ele>2673.2</ele>
        <time>2017-08-13T10:07:29Z</time>
      </trkpt>
      <trkpt lat="44.25943" lon="6.71547">
        <ele>2674.8</ele>
        <time>2017-08-13T10:07:42Z</time>
      </trkpt>
      <trkpt lat="44.25942" lon="6.71559">
        <ele>2675.7</ele>
        <time>2017-08-13T10:07:52Z</time>
      </trkpt>
      <trkpt lat="44.25938" lon="6.71572">
        <ele>2676.5</ele>
        <time>2017-08-13T10:08:02Z</time>
      </trkpt>
      <trkpt lat="44.2594" lon="6.71585">
        <ele>2677.6</ele>
        <time>2017-08-13T10:08:14Z</time>
      </trkpt>
      <trkpt lat="44.25941" lon="6.71597">
        <ele>2678.9</ele>
        <time>2017-08-13T10:08:25Z</time>
      </trkpt>
      <trkpt lat="44.25944" lon="6.7161">
        <ele>2680.3</ele>
        <time>2017-08-13T10:08:37Z</time>
      </trkpt>
      <trkpt lat="44.2595" lon="6.7162">
        <ele>2681.5</ele>
        <time>2017-08-13T10:08:47Z</time>
      </trkpt>
      <trkpt lat="44.25952" lon="6.71632">
        <ele>2682.4</ele>
        <time>2017-08-13T10:08:58Z</time>
      </trkpt>
      <trkpt lat="44.25958" lon="6.71642">
        <ele>2683.1</ele>
        <time>2017-08-13T10:09:07Z</time>
      </trkpt>
      <trkpt lat="44.25961" lon="6.71654">
        <ele>2683.5</ele>
        <time>2017-08-13T10:09:19Z</time>
      </trkpt>
      <trkpt lat="44.25958" lon="6.71642">
        <ele>2682.7</ele>
        <time>2017-08-13T10:19:47Z</time>
      </trkpt>
      <trkpt lat="44.2595" lon="6.71634">
        <ele>2682.9</ele>
        <time>2017-08-13T10:19:55Z</time>
      </trkpt>
      <trkpt lat="44.25946" lon="6.71623">
        <ele>2683</ele>
        <time>2017-08-13T10:20:03Z</time>
      </trkpt>
      <trkpt lat="44.25943" lon="6.7161">
        <ele>2683.7</ele>
        <time>2017-08-13T10:20:14Z</time>
      </trkpt>
      <trkpt lat="44.25941" lon="6.71598">
        <ele>2684</ele>
        <time>2017-08-13T10:20:24Z</time>
      </trkpt>
      <trkpt lat="44.25941" lon="6.71584">
        <ele>2683.6</ele>
        <time>2017-08-13T10:20:36Z</time>
      </trkpt>
      <trkpt lat="44.25941" lon="6.71571">
        <ele>2682.7</ele>
        <time>2017-08-13T10:20:46Z</time>
      </trkpt>
      <trkpt lat="44.25943" lon="6.71559">
        <ele>2681.7</ele>
        <time>2017-08-13T10:20:54Z</time>
      </trkpt>
      <trkpt lat="44.25943" lon="6.71545">
        <ele>2680.5</ele>
        <time>2017-08-13T10:21:04Z</time>
      </trkpt>
      <trkpt lat="44.25944" lon="6.71532">
        <ele>2679.5</ele>
        <time>2017-08-13T10:21:14Z</time>
      </trkpt>
      <trkpt lat="44.25942" lon="6.71518">
        <ele>2678.2</ele>
        <time>2017-08-13T10:21:24Z</time>
      </trkpt>
      <trkpt lat="44.25942" lon="6.71506">
        <ele>2676.9</ele>
        <time>2017-08-13T10:21:32Z</time>
      </trkpt>
      <trkpt lat="44.25941" lon="6.71493">
        <ele>2675.5</ele>
        <time>2017-08-13T10:21:41Z</time>
      </trkpt>
      <trkpt lat="44.25939" lon="6.7148">
        <ele>2674.5</ele>
        <time>2017-08-13T10:21:51Z</time>
      </trkpt>
      <trkpt lat="44.25934" lon="6.71468">
        <ele>2673.3</ele>
        <time>2017-08-13T10:22:02Z</time>
      </trkpt>
      <trkpt lat="44.25929" lon="6.71457">
        <ele>2672.2</ele>
        <time>2017-08-13T10:22:11Z</time>
      </trkpt>
      <trkpt lat="44.25928" lon="6.71444">
        <ele>2671.3</ele>
        <time>2017-08-13T10:22:19Z</time>
      </trkpt>
      <trkpt lat="44.25923" lon="6.71433">
        <ele>2669.9</ele>
        <time>2017-08-13T10:22:31Z</time>
      </trkpt>
      <trkpt lat="44.25918" lon="6.71422">
        <ele>2668.3</ele>
        <time>2017-08-13T10:22:41Z</time>
      </trkpt>
      <trkpt lat="44.25916" lon="6.71408">
        <ele>2667</ele>
        <time>2017-08-13T10:22:50Z</time>
      </trkpt>
      <trkpt lat="44.25915" lon="6.71396">
        <ele>2666.1</ele>
        <time>2017-08-13T10:22:58Z</time>
      </trkpt>
      <trkpt lat="44.2591" lon="6.71384">
        <ele>2665.3</ele>
        <time>2017-08-13T10:23:08Z</time>
      </trkpt>
      <trkpt lat="44.25904" lon="6.71375">
        <ele>2664.8</ele>
        <time>2017-08-13T10:23:18Z</time>
      </trkpt>
      <trkpt lat="44.25896" lon="6.71366">
        <ele>2664</ele>
        <time>2017-08-13T10:23:28Z</time>
      </trkpt>
      <trkpt lat="44.25894" lon="6.71354">
        <ele>2662.9</ele>
        <time>2017-08-13T10:23:40Z</time>
      </trkpt>
      <trkpt lat="44.25892" lon="6.71341">
        <ele>2661.7</ele>
        <time>2017-08-13T10:23:50Z</time>
      </trkpt>
      <trkpt lat="44.25889" lon="6.71328">
        <ele>2661</ele>
        <time>2017-08-13T10:24:01Z</time>
      </trkpt>
      <trkpt lat="44.25883" lon="6.71318">
        <ele>2660.3</ele>
        <time>2017-08-13T10:24:11Z</time>
      </trkpt>
      <trkpt lat="44.25878" lon="6.71308">
        <ele>2659.6</ele>
        <time>2017-08-13T10:24:21Z</time>
      </trkpt>
      <trkpt lat="44.25873" lon="6.71297">
        <ele>2658.9</ele>
        <time>2017-08-13T10:24:30Z</time>
      </trkpt>
      <trkpt lat="44.25865" lon="6.7129">
        <ele>2657.6</ele>
        <time>2017-08-13T10:24:40Z</time>
      </trkpt>
      <trkpt lat="44.25857" lon="6.71283">
        <ele>2656.1</ele>
        <time>2017-08-13T10:24:50Z</time>
      </trkpt>
      <trkpt lat="44.2585" lon="6.71275">
        <ele>2654.9</ele>
        <time>2017-08-13T10:24:59Z</time>
      </trkpt>
      <trkpt lat="44.25842" lon="6.71267">
        <ele>2653.8</ele>
        <time>2017-08-13T10:25:38Z</time>
      </trkpt>
      <trkpt lat="44.25833" lon="6.71261">
        <ele>2653.8</ele>
        <time>2017-08-13T10:25:48Z</time>
      </trkpt>
      <trkpt lat="44.25826" lon="6.71252">
        <ele>2653.2</ele>
        <time>2017-08-13T10:25:59Z</time>
      </trkpt>
      <trkpt lat="44.2582" lon="6.71241">
        <ele>2652</ele>
        <time>2017-08-13T10:26:11Z</time>
      </trkpt>
      <trkpt lat="44.25812" lon="6.71235">
        <ele>2650.9</ele>
        <time>2017-08-13T10:26:19Z</time>
      </trkpt>
      <trkpt lat="44.25805" lon="6.71227">
        <ele>2648.9</ele>
        <time>2017-08-13T10:26:30Z</time>
      </trkpt>
      <trkpt lat="44.25798" lon="6.71216">
        <ele>2647.2</ele>
        <time>2017-08-13T10:26:41Z</time>
      </trkpt>
      <trkpt lat="44.25789" lon="6.71218">
        <ele>2644.8</ele>
        <time>2017-08-13T10:26:54Z</time>
      </trkpt>
      <trkpt lat="44.25784" lon="6.71229">
        <ele>2641.4</ele>
        <time>2017-08-13T10:27:13Z</time>
      </trkpt>
      <trkpt lat="44.25775" lon="6.71234">
        <ele>2640.1</ele>
        <time>2017-08-13T10:27:21Z</time>
      </trkpt>
      <trkpt lat="44.25766" lon="6.71233">
        <ele>2638.3</ele>
        <time>2017-08-13T10:27:31Z</time>
      </trkpt>
      <trkpt lat="44.25757" lon="6.71238">
        <ele>2636.7</ele>
        <time>2017-08-13T10:27:39Z</time>
      </trkpt>
      <trkpt lat="44.25748" lon="6.71242">
        <ele>2634.8</ele>
        <time>2017-08-13T10:27:48Z</time>
      </trkpt>
      <trkpt lat="44.25738" lon="6.71242">
        <ele>2632.7</ele>
        <time>2017-08-13T10:27:58Z</time>
      </trkpt>
      <trkpt lat="44.2573" lon="6.71236">
        <ele>2631</ele>
        <time>2017-08-13T10:28:06Z</time>
      </trkpt>
      <trkpt lat="44.25722" lon="6.71228">
        <ele>2629</ele>
        <time>2017-08-13T10:28:15Z</time>
      </trkpt>
      <trkpt lat="44.25713" lon="6.71226">
        <ele>2627</ele>
        <time>2017-08-13T10:28:25Z</time>
      </trkpt>
      <trkpt lat="44.25704" lon="6.71225">
        <ele>2625.4</ele>
        <time>2017-08-13T10:28:34Z</time>
      </trkpt>
      <trkpt lat="44.25695" lon="6.71223">
        <ele>2623.6</ele>
        <time>2017-08-13T10:28:43Z</time>
      </trkpt>
      <trkpt lat="44.25686" lon="6.71222">
        <ele>2621.7</ele>
        <time>2017-08-13T10:28:52Z</time>
      </trkpt>
      <trkpt lat="44.25677" lon="6.71224">
        <ele>2618.8</ele>
        <time>2017-08-13T10:29:08Z</time>
      </trkpt>
      <trkpt lat="44.25672" lon="6.71234">
        <ele>2616.9</ele>
        <time>2017-08-13T10:29:18Z</time>
      </trkpt>
      <trkpt lat="44.25664" lon="6.71241">
        <ele>2614.9</ele>
        <time>2017-08-13T10:29:27Z</time>
      </trkpt>
      <trkpt lat="44.25656" lon="6.71248">
        <ele>2613.1</ele>
        <time>2017-08-13T10:29:35Z</time>
      </trkpt>
      <trkpt lat="44.25647" lon="6.71248">
        <ele>2610.6</ele>
        <time>2017-08-13T10:29:47Z</time>
      </trkpt>
      <trkpt lat="44.25639" lon="6.71241">
        <ele>2608.3</ele>
        <time>2017-08-13T10:29:56Z</time>
      </trkpt>
      <trkpt lat="44.25633" lon="6.71231">
        <ele>2605.7</ele>
        <time>2017-08-13T10:30:07Z</time>
      </trkpt>
      <trkpt lat="44.25625" lon="6.71223">
        <ele>2603.5</ele>
        <time>2017-08-13T10:30:19Z</time>
      </trkpt>
      <trkpt lat="44.25619" lon="6.71212">
        <ele>2600.6</ele>
        <time>2017-08-13T10:30:32Z</time>
      </trkpt>
      <trkpt lat="44.25612" lon="6.71203">
        <ele>2598.9</ele>
        <time>2017-08-13T10:30:39Z</time>
      </trkpt>
      <trkpt lat="44.25605" lon="6.71194">
        <ele>2597</ele>
        <time>2017-08-13T10:30:48Z</time>
      </trkpt>
      <trkpt lat="44.25597" lon="6.71184">
        <ele>2595.4</ele>
        <time>2017-08-13T10:30:58Z</time>
      </trkpt>
      <trkpt lat="44.25587" lon="6.71187">
        <ele>2594.3</ele>
        <time>2017-08-13T10:31:07Z</time>
      </trkpt>
      <trkpt lat="44.25579" lon="6.71183">
        <ele>2593.2</ele>
        <time>2017-08-13T10:31:17Z</time>
      </trkpt>
      <trkpt lat="44.25575" lon="6.71171">
        <ele>2590.4</ele>
        <time>2017-08-13T10:31:45Z</time>
      </trkpt>
      <trkpt lat="44.2557" lon="6.71159">
        <ele>2589.2</ele>
        <time>2017-08-13T10:31:54Z</time>
      </trkpt>
      <trkpt lat="44.25563" lon="6.7115">
        <ele>2588</ele>
        <time>2017-08-13T10:32:04Z</time>
      </trkpt>
      <trkpt lat="44.25554" lon="6.71153">
        <ele>2587.3</ele>
        <time>2017-08-13T10:32:13Z</time>
      </trkpt>
      <trkpt lat="44.25545" lon="6.71157">
        <ele>2586.1</ele>
        <time>2017-08-13T10:32:23Z</time>
      </trkpt>
      <trkpt lat="44.25543" lon="6.71145">
        <ele>2582.8</ele>
        <time>2017-08-13T10:32:49Z</time>
      </trkpt>
      <trkpt lat="44.25546" lon="6.71131">
        <ele>2581.5</ele>
        <time>2017-08-13T10:33:01Z</time>
      </trkpt>
      <trkpt lat="44.25545" lon="6.71118">
        <ele>2579.9</ele>
        <time>2017-08-13T10:33:16Z</time>
      </trkpt>
      <trkpt lat="44.2554" lon="6.71107">
        <ele>2576.5</ele>
        <time>2017-08-13T10:34:28Z</time>
      </trkpt>
      <trkpt lat="44.25534" lon="6.71095">
        <ele>2576.1</ele>
        <time>2017-08-13T10:34:37Z</time>
      </trkpt>
      <trkpt lat="44.25529" lon="6.71084">
        <ele>2575.2</ele>
        <time>2017-08-13T10:34:45Z</time>
      </trkpt>
      <trkpt lat="44.25521" lon="6.71091">
        <ele>2573.4</ele>
        <time>2017-08-13T10:35:04Z</time>
      </trkpt>
      <trkpt lat="44.25519" lon="6.71104">
        <ele>2572.2</ele>
        <time>2017-08-13T10:35:13Z</time>
      </trkpt>
      <trkpt lat="44.25519" lon="6.71117">
        <ele>2570.6</ele>
        <time>2017-08-13T10:35:22Z</time>
      </trkpt>
      <trkpt lat="44.25518" lon="6.7113">
        <ele>2569.1</ele>
        <time>2017-08-13T10:35:31Z</time>
      </trkpt>
      <trkpt lat="44.25514" lon="6.71142">
        <ele>2567.6</ele>
        <time>2017-08-13T10:35:39Z</time>
      </trkpt>
      <trkpt lat="44.2551" lon="6.71153">
        <ele>2566.1</ele>
        <time>2017-08-13T10:35:48Z</time>
      </trkpt>
      <trkpt lat="44.25508" lon="6.71141">
        <ele>2564.2</ele>
        <time>2017-08-13T10:35:56Z</time>
      </trkpt>
      <trkpt lat="44.25507" lon="6.71127">
        <ele>2562.6</ele>
        <time>2017-08-13T10:36:04Z</time>
      </trkpt>
      <trkpt lat="44.25501" lon="6.71117">
        <ele>2560.8</ele>
        <time>2017-08-13T10:36:15Z</time>
      </trkpt>
      <trkpt lat="44.25497" lon="6.71129">
        <ele>2557.2</ele>
        <time>2017-08-13T10:36:40Z</time>
      </trkpt>
      <trkpt lat="44.25497" lon="6.71143">
        <ele>2556</ele>
        <time>2017-08-13T10:36:49Z</time>
      </trkpt>
      <trkpt lat="44.25491" lon="6.71153">
        <ele>2554.8</ele>
        <time>2017-08-13T10:36:57Z</time>
      </trkpt>
      <trkpt lat="44.25485" lon="6.71142">
        <ele>2549.5</ele>
        <time>2017-08-13T10:37:47Z</time>
      </trkpt>
      <trkpt lat="44.25481" lon="6.7113">
        <ele>2549.3</ele>
        <time>2017-08-13T10:37:55Z</time>
      </trkpt>
      <trkpt lat="44.25479" lon="6.71117">
        <ele>2548.3</ele>
        <time>2017-08-13T10:38:06Z</time>
      </trkpt>
      <trkpt lat="44.25474" lon="6.71104">
        <ele>2547</ele>
        <time>2017-08-13T10:38:16Z</time>
      </trkpt>
      <trkpt lat="44.25469" lon="6.71094">
        <ele>2544.9</ele>
        <time>2017-08-13T10:38:29Z</time>
      </trkpt>
      <trkpt lat="44.25464" lon="6.71082">
        <ele>2542.5</ele>
        <time>2017-08-13T10:38:40Z</time>
      </trkpt>
      <trkpt lat="44.25459" lon="6.71072">
        <ele>2539.7</ele>
        <time>2017-08-13T10:38:53Z</time>
      </trkpt>
      <trkpt lat="44.25458" lon="6.71058">
        <ele>2537.9</ele>
        <time>2017-08-13T10:39:02Z</time>
      </trkpt>
      <trkpt lat="44.25455" lon="6.71044">
        <ele>2536.2</ele>
        <time>2017-08-13T10:39:11Z</time>
      </trkpt>
      <trkpt lat="44.25447" lon="6.7105">
        <ele>2531.4</ele>
        <time>2017-08-13T10:39:38Z</time>
      </trkpt>
      <trkpt lat="44.25443" lon="6.71063">
        <ele>2529.9</ele>
        <time>2017-08-13T10:39:48Z</time>
      </trkpt>
      <trkpt lat="44.25437" lon="6.71054">
        <ele>2522.1</ele>
        <time>2017-08-13T10:40:38Z</time>
      </trkpt>
      <trkpt lat="44.25435" lon="6.71041">
        <ele>2520.4</ele>
        <time>2017-08-13T10:40:47Z</time>
      </trkpt>
      <trkpt lat="44.25435" lon="6.71028">
        <ele>2518.6</ele>
        <time>2017-08-13T10:40:57Z</time>
      </trkpt>
      <trkpt lat="44.25432" lon="6.71016">
        <ele>2517.1</ele>
        <time>2017-08-13T10:41:10Z</time>
      </trkpt>
      <trkpt lat="44.25433" lon="6.71002">
        <ele>2516.4</ele>
        <time>2017-08-13T10:41:19Z</time>
      </trkpt>
      <trkpt lat="44.25424" lon="6.70999">
        <ele>2513.4</ele>
        <time>2017-08-13T10:41:44Z</time>
      </trkpt>
      <trkpt lat="44.25421" lon="6.71011">
        <ele>2510.9</ele>
        <time>2017-08-13T10:41:56Z</time>
      </trkpt>
      <trkpt lat="44.2542" lon="6.71023">
        <ele>2509.6</ele>
        <time>2017-08-13T10:42:05Z</time>
      </trkpt>
      <trkpt lat="44.2542" lon="6.71036">
        <ele>2507.9</ele>
        <time>2017-08-13T10:42:16Z</time>
      </trkpt>
      <trkpt lat="44.25419" lon="6.71049">
        <ele>2506.3</ele>
        <time>2017-08-13T10:42:25Z</time>
      </trkpt>
      <trkpt lat="44.25409" lon="6.71049">
        <ele>2501.2</ele>
        <time>2017-08-13T10:42:53Z</time>
      </trkpt>
      <trkpt lat="44.25401" lon="6.71042">
        <ele>2496.7</ele>
        <time>2017-08-13T10:43:10Z</time>
      </trkpt>
      <trkpt lat="44.25393" lon="6.71048">
        <ele>2493</ele>
        <time>2017-08-13T10:43:25Z</time>
      </trkpt>
      <trkpt lat="44.25391" lon="6.71061">
        <ele>2489.9</ele>
        <time>2017-08-13T10:43:39Z</time>
      </trkpt>
      <trkpt lat="44.25383" lon="6.71053">
        <ele>2483.7</ele>
        <time>2017-08-13T10:44:12Z</time>
      </trkpt>
      <trkpt lat="44.25377" lon="6.71043">
        <ele>2481.9</ele>
        <time>2017-08-13T10:44:24Z</time>
      </trkpt>
      <trkpt lat="44.25374" lon="6.71031">
        <ele>2480.3</ele>
        <time>2017-08-13T10:44:34Z</time>
      </trkpt>
      <trkpt lat="44.25369" lon="6.71041">
        <ele>2478.1</ele>
        <time>2017-08-13T10:44:49Z</time>
      </trkpt>
      <trkpt lat="44.25366" lon="6.71053">
        <ele>2476.6</ele>
        <time>2017-08-13T10:45:01Z</time>
      </trkpt>
      <trkpt lat="44.25357" lon="6.71048">
        <ele>2473.1</ele>
        <time>2017-08-13T10:45:33Z</time>
      </trkpt>
      <trkpt lat="44.25348" lon="6.71054">
        <ele>2468.4</ele>
        <time>2017-08-13T10:46:08Z</time>
      </trkpt>
      <trkpt lat="44.25346" lon="6.71067">
        <ele>2463.8</ele>
        <time>2017-08-13T10:46:32Z</time>
      </trkpt>
      <trkpt lat="44.25355" lon="6.71076">
        <ele>2462.3</ele>
        <time>2017-08-13T10:46:48Z</time>
      </trkpt>
      <trkpt lat="44.25364" lon="6.71081">
        <ele>2460.6</ele>
        <time>2017-08-13T10:47:00Z</time>
      </trkpt>
      <trkpt lat="44.25369" lon="6.71093">
        <ele>2458.7</ele>
        <time>2017-08-13T10:47:12Z</time>
      </trkpt>
      <trkpt lat="44.25373" lon="6.71105">
        <ele>2457.1</ele>
        <time>2017-08-13T10:47:24Z</time>
      </trkpt>
      <trkpt lat="44.25381" lon="6.71113">
        <ele>2456.4</ele>
        <time>2017-08-13T10:47:30Z</time>
      </trkpt>
      <trkpt lat="44.2539" lon="6.71118">
        <ele>2455.5</ele>
        <time>2017-08-13T10:47:38Z</time>
      </trkpt>
      <trkpt lat="44.25398" lon="6.71125">
        <ele>2454.4</ele>
        <time>2017-08-13T10:47:48Z</time>
      </trkpt>
      <trkpt lat="44.25406" lon="6.71133">
        <ele>2453.3</ele>
        <time>2017-08-13T10:47:58Z</time>
      </trkpt>
      <trkpt lat="44.25406" lon="6.71146">
        <ele>2452.2</ele>
        <time>2017-08-13T10:48:06Z</time>
      </trkpt>
      <trkpt lat="44.25407" lon="6.71159">
        <ele>2451.2</ele>
        <time>2017-08-13T10:48:15Z</time>
      </trkpt>
      <trkpt lat="44.25407" lon="6.71172">
        <ele>2450.4</ele>
        <time>2017-08-13T10:48:26Z</time>
      </trkpt>
      <trkpt lat="44.2541" lon="6.71185">
        <ele>2450</ele>
        <time>2017-08-13T10:48:33Z</time>
      </trkpt>
      <trkpt lat="44.25412" lon="6.71197">
        <ele>2449.7</ele>
        <time>2017-08-13T10:48:40Z</time>
      </trkpt>
      <trkpt lat="44.25415" lon="6.7121">
        <ele>2447.1</ele>
        <time>2017-08-13T10:49:17Z</time>
      </trkpt>
      <trkpt lat="44.25419" lon="6.71221">
        <ele>2446.3</ele>
        <time>2017-08-13T10:49:25Z</time>
      </trkpt>
      <trkpt lat="44.25425" lon="6.71233">
        <ele>2444.7</ele>
        <time>2017-08-13T10:49:36Z</time>
      </trkpt>
      <trkpt lat="44.25424" lon="6.71247">
        <ele>2443.2</ele>
        <time>2017-08-13T10:49:47Z</time>
      </trkpt>
      <trkpt lat="44.25425" lon="6.71262">
        <ele>2441.8</ele>
        <time>2017-08-13T10:49:56Z</time>
      </trkpt>
      <trkpt lat="44.25429" lon="6.71274">
        <ele>2440.7</ele>
        <time>2017-08-13T10:50:04Z</time>
      </trkpt>
      <trkpt lat="44.25431" lon="6.71287">
        <ele>2439.6</ele>
        <time>2017-08-13T10:50:14Z</time>
      </trkpt>
      <trkpt lat="44.2543" lon="6.713">
        <ele>2439.1</ele>
        <time>2017-08-13T10:50:23Z</time>
      </trkpt>
      <trkpt lat="44.25425" lon="6.71313">
        <ele>2438.3</ele>
        <time>2017-08-13T10:50:43Z</time>
      </trkpt>
      <trkpt lat="44.25423" lon="6.71327">
        <ele>2437.4</ele>
        <time>2017-08-13T10:50:51Z</time>
      </trkpt>
      <trkpt lat="44.25425" lon="6.7134">
        <ele>2436.7</ele>
        <time>2017-08-13T10:51:00Z</time>
      </trkpt>
      <trkpt lat="44.25417" lon="6.71346">
        <ele>2435.3</ele>
        <time>2017-08-13T10:51:15Z</time>
      </trkpt>
      <trkpt lat="44.25414" lon="6.71359">
        <ele>2434</ele>
        <time>2017-08-13T10:51:25Z</time>
      </trkpt>
      <trkpt lat="44.25417" lon="6.71371">
        <ele>2433.1</ele>
        <time>2017-08-13T10:51:33Z</time>
      </trkpt>
      <trkpt lat="44.25414" lon="6.71384">
        <ele>2431.8</ele>
        <time>2017-08-13T10:51:43Z</time>
      </trkpt>
      <trkpt lat="44.25415" lon="6.71396">
        <ele>2430.9</ele>
        <time>2017-08-13T10:51:51Z</time>
      </trkpt>
      <trkpt lat="44.2542" lon="6.71406">
        <ele>2429.6</ele>
        <time>2017-08-13T10:52:01Z</time>
      </trkpt>
      <trkpt lat="44.25412" lon="6.71412">
        <ele>2428</ele>
        <time>2017-08-13T10:52:15Z</time>
      </trkpt>
      <trkpt lat="44.25403" lon="6.71418">
        <ele>2426.7</ele>
        <time>2017-08-13T10:52:24Z</time>
      </trkpt>
      <trkpt lat="44.25397" lon="6.71426">
        <ele>2425</ele>
        <time>2017-08-13T10:52:34Z</time>
      </trkpt>
      <trkpt lat="44.25391" lon="6.71437">
        <ele>2423.5</ele>
        <time>2017-08-13T10:52:42Z</time>
      </trkpt>
      <trkpt lat="44.25383" lon="6.71445">
        <ele>2421.8</ele>
        <time>2017-08-13T10:52:52Z</time>
      </trkpt>
      <trkpt lat="44.25378" lon="6.71455">
        <ele>2420.7</ele>
        <time>2017-08-13T10:52:58Z</time>
      </trkpt>
      <trkpt lat="44.25372" lon="6.71465">
        <ele>2419.1</ele>
        <time>2017-08-13T10:53:07Z</time>
      </trkpt>
      <trkpt lat="44.25363" lon="6.71467">
        <ele>2417.6</ele>
        <time>2017-08-13T10:53:16Z</time>
      </trkpt>
      <trkpt lat="44.25355" lon="6.71475">
        <ele>2416.1</ele>
        <time>2017-08-13T10:53:24Z</time>
      </trkpt>
      <trkpt lat="44.25347" lon="6.71483">
        <ele>2414.5</ele>
        <time>2017-08-13T10:53:32Z</time>
      </trkpt>
      <trkpt lat="44.25342" lon="6.71493">
        <ele>2412.9</ele>
        <time>2017-08-13T10:53:40Z</time>
      </trkpt>
      <trkpt lat="44.25333" lon="6.715">
        <ele>2411.1</ele>
        <time>2017-08-13T10:53:53Z</time>
      </trkpt>
      <trkpt lat="44.25327" lon="6.71509">
        <ele>2409.6</ele>
        <time>2017-08-13T10:54:02Z</time>
      </trkpt>
      <trkpt lat="44.25321" lon="6.71521">
        <ele>2408.1</ele>
        <time>2017-08-13T10:54:10Z</time>
      </trkpt>
      <trkpt lat="44.25314" lon="6.71531">
        <ele>2406.6</ele>
        <time>2017-08-13T10:54:20Z</time>
      </trkpt>
      <trkpt lat="44.25306" lon="6.71537">
        <ele>2405</ele>
        <time>2017-08-13T10:54:30Z</time>
      </trkpt>
      <trkpt lat="44.25297" lon="6.71541">
        <ele>2403.6</ele>
        <time>2017-08-13T10:54:38Z</time>
      </trkpt>
      <trkpt lat="44.25289" lon="6.71546">
        <ele>2401.9</ele>
        <time>2017-08-13T10:54:47Z</time>
      </trkpt>
      <trkpt lat="44.2528" lon="6.71552">
        <ele>2400.5</ele>
        <time>2017-08-13T10:54:55Z</time>
      </trkpt>
      <trkpt lat="44.25271" lon="6.71558">
        <ele>2399</ele>
        <time>2017-08-13T10:55:04Z</time>
      </trkpt>
      <trkpt lat="44.25262" lon="6.71555">
        <ele>2396.9</ele>
        <time>2017-08-13T10:55:16Z</time>
      </trkpt>
      <trkpt lat="44.25253" lon="6.7155">
        <ele>2395.2</ele>
        <time>2017-08-13T10:55:27Z</time>
      </trkpt>
      <trkpt lat="44.25242" lon="6.71546">
        <ele>2393.6</ele>
        <time>2017-08-13T10:55:41Z</time>
      </trkpt>
      <trkpt lat="44.25233" lon="6.71549">
        <ele>2392.7</ele>
        <time>2017-08-13T10:55:47Z</time>
      </trkpt>
      <trkpt lat="44.25224" lon="6.7155">
        <ele>2390.7</ele>
        <time>2017-08-13T10:56:00Z</time>
      </trkpt>
      <trkpt lat="44.25214" lon="6.71549">
        <ele>2388.7</ele>
        <time>2017-08-13T10:56:12Z</time>
      </trkpt>
      <trkpt lat="44.25204" lon="6.71549">
        <ele>2387.5</ele>
        <time>2017-08-13T10:56:20Z</time>
      </trkpt>
      <trkpt lat="44.25195" lon="6.7155">
        <ele>2385.8</ele>
        <time>2017-08-13T10:56:30Z</time>
      </trkpt>
      <trkpt lat="44.25187" lon="6.71544">
        <ele>2383.8</ele>
        <time>2017-08-13T10:56:42Z</time>
      </trkpt>
      <trkpt lat="44.25184" lon="6.71531">
        <ele>2382.4</ele>
        <time>2017-08-13T10:56:52Z</time>
      </trkpt>
      <trkpt lat="44.25176" lon="6.71524">
        <ele>2380.7</ele>
        <time>2017-08-13T10:57:06Z</time>
      </trkpt>
      <trkpt lat="44.25185" lon="6.71528">
        <ele>2378.4</ele>
        <time>2017-08-13T10:57:19Z</time>
      </trkpt>
      <trkpt lat="44.25194" lon="6.71539">
        <ele>2376.6</ele>
        <time>2017-08-13T10:57:32Z</time>
      </trkpt>
      <trkpt lat="44.25204" lon="6.71541">
        <ele>2375.7</ele>
        <time>2017-08-13T10:57:39Z</time>
      </trkpt>
      <trkpt lat="44.25213" lon="6.71545">
        <ele>2374.8</ele>
        <time>2017-08-13T10:57:46Z</time>
      </trkpt>
      <trkpt lat="44.25226" lon="6.71542">
        <ele>2374.3</ele>
        <time>2017-08-13T10:57:50Z</time>
      </trkpt>
      <trkpt lat="44.25231" lon="6.71532">
        <ele>2373.4</ele>
        <time>2017-08-13T10:57:57Z</time>
      </trkpt>
      <trkpt lat="44.2524" lon="6.71524">
        <ele>2372.3</ele>
        <time>2017-08-13T10:58:05Z</time>
      </trkpt>
      <trkpt lat="44.25249" lon="6.71519">
        <ele>2371</ele>
        <time>2017-08-13T10:58:14Z</time>
      </trkpt>
      <trkpt lat="44.25251" lon="6.71506">
        <ele>2370.2</ele>
        <time>2017-08-13T10:58:20Z</time>
      </trkpt>
      <trkpt lat="44.25256" lon="6.71495">
        <ele>2369</ele>
        <time>2017-08-13T10:58:28Z</time>
      </trkpt>
      <trkpt lat="44.2526" lon="6.71482">
        <ele>2368</ele>
        <time>2017-08-13T10:58:36Z</time>
      </trkpt>
      <trkpt lat="44.2526" lon="6.71469">
        <ele>2367</ele>
        <time>2017-08-13T10:58:43Z</time>
      </trkpt>
      <trkpt lat="44.25263" lon="6.71456">
        <ele>2366</ele>
        <time>2017-08-13T10:58:49Z</time>
      </trkpt>
      <trkpt lat="44.25266" lon="6.71444">
        <ele>2364.8</ele>
        <time>2017-08-13T10:58:56Z</time>
      </trkpt>
      <trkpt lat="44.25265" lon="6.7143">
        <ele>2363.5</ele>
        <time>2017-08-13T10:59:05Z</time>
      </trkpt>
      <trkpt lat="44.25264" lon="6.71416">
        <ele>2362.2</ele>
        <time>2017-08-13T10:59:13Z</time>
      </trkpt>
      <trkpt lat="44.25267" lon="6.71402">
        <ele>2360.3</ele>
        <time>2017-08-13T10:59:24Z</time>
      </trkpt>
      <trkpt lat="44.25262" lon="6.71391">
        <ele>2359.2</ele>
        <time>2017-08-13T10:59:33Z</time>
      </trkpt>
      <trkpt lat="44.25257" lon="6.71379">
        <ele>2357.6</ele>
        <time>2017-08-13T10:59:45Z</time>
      </trkpt>
      <trkpt lat="44.25256" lon="6.71365">
        <ele>2355.9</ele>
        <time>2017-08-13T10:59:59Z</time>
      </trkpt>
      <trkpt lat="44.25256" lon="6.71353">
        <ele>2354.9</ele>
        <time>2017-08-13T11:00:10Z</time>
      </trkpt>
      <trkpt lat="44.25255" lon="6.71339">
        <ele>2353.2</ele>
        <time>2017-08-13T11:00:20Z</time>
      </trkpt>
      <trkpt lat="44.25257" lon="6.71326">
        <ele>2351.5</ele>
        <time>2017-08-13T11:00:28Z</time>
      </trkpt>
      <trkpt lat="44.25256" lon="6.71313">
        <ele>2349.8</ele>
        <time>2017-08-13T11:00:39Z</time>
      </trkpt>
      <trkpt lat="44.25259" lon="6.713">
        <ele>2348.3</ele>
        <time>2017-08-13T11:00:49Z</time>
      </trkpt>
      <trkpt lat="44.25259" lon="6.71287">
        <ele>2347.1</ele>
        <time>2017-08-13T11:00:57Z</time>
      </trkpt>
      <trkpt lat="44.25258" lon="6.71275">
        <ele>2346</ele>
        <time>2017-08-13T11:01:04Z</time>
      </trkpt>
      <trkpt lat="44.25258" lon="6.71262">
        <ele>2344.7</ele>
        <time>2017-08-13T11:01:12Z</time>
      </trkpt>
      <trkpt lat="44.2526" lon="6.7125">
        <ele>2342.7</ele>
        <time>2017-08-13T11:01:23Z</time>
      </trkpt>
      <trkpt lat="44.25259" lon="6.71236">
        <ele>2341</ele>
        <time>2017-08-13T11:01:32Z</time>
      </trkpt>
      <trkpt lat="44.2526" lon="6.71224">
        <ele>2339.9</ele>
        <time>2017-08-13T11:01:40Z</time>
      </trkpt>
      <trkpt lat="44.25258" lon="6.7121">
        <ele>2338.4</ele>
        <time>2017-08-13T11:01:51Z</time>
      </trkpt>
      <trkpt lat="44.25257" lon="6.71196">
        <ele>2337.4</ele>
        <time>2017-08-13T11:01:59Z</time>
      </trkpt>
      <trkpt lat="44.25257" lon="6.71183">
        <ele>2336.4</ele>
        <time>2017-08-13T11:02:07Z</time>
      </trkpt>
      <trkpt lat="44.25251" lon="6.71172">
        <ele>2335.3</ele>
        <time>2017-08-13T11:02:16Z</time>
      </trkpt>
      <trkpt lat="44.25242" lon="6.7117">
        <ele>2333.5</ele>
        <time>2017-08-13T11:02:27Z</time>
      </trkpt>
      <trkpt lat="44.25235" lon="6.71179">
        <ele>2332.5</ele>
        <time>2017-08-13T11:02:35Z</time>
      </trkpt>
      <trkpt lat="44.25224" lon="6.71177">
        <ele>2331.3</ele>
        <time>2017-08-13T11:02:47Z</time>
      </trkpt>
      <trkpt lat="44.25218" lon="6.71167">
        <ele>2330.1</ele>
        <time>2017-08-13T11:02:55Z</time>
      </trkpt>
      <trkpt lat="44.25211" lon="6.71159">
        <ele>2328.8</ele>
        <time>2017-08-13T11:03:03Z</time>
      </trkpt>
      <trkpt lat="44.25202" lon="6.71153">
        <ele>2326.9</ele>
        <time>2017-08-13T11:03:16Z</time>
      </trkpt>
      <trkpt lat="44.25193" lon="6.71149">
        <ele>2326.2</ele>
        <time>2017-08-13T11:03:25Z</time>
      </trkpt>
      <trkpt lat="44.25184" lon="6.71144">
        <ele>2325.3</ele>
        <time>2017-08-13T11:03:36Z</time>
      </trkpt>
      <trkpt lat="44.25184" lon="6.71157">
        <ele>2324.4</ele>
        <time>2017-08-13T11:03:54Z</time>
      </trkpt>
      <trkpt lat="44.25191" lon="6.71165">
        <ele>2324.2</ele>
        <time>2017-08-13T11:04:06Z</time>
      </trkpt>
      <trkpt lat="44.252" lon="6.71171">
        <ele>2324.2</ele>
        <time>2017-08-13T11:04:11Z</time>
      </trkpt>
      <trkpt lat="44.25198" lon="6.71156">
        <ele>2324.1</ele>
        <time>2017-08-13T11:04:20Z</time>
      </trkpt>
      <trkpt lat="44.25189" lon="6.71151">
        <ele>2324.5</ele>
        <time>2017-08-13T11:04:50Z</time>
      </trkpt>
      <trkpt lat="44.2518" lon="6.71146">
        <ele>2324.5</ele>
        <time>2017-08-13T11:04:58Z</time>
      </trkpt>
      <trkpt lat="44.2517" lon="6.71148">
        <ele>2324.3</ele>
        <time>2017-08-13T11:05:12Z</time>
      </trkpt>
      <trkpt lat="44.25163" lon="6.71141">
        <ele>2324</ele>
        <time>2017-08-13T11:05:26Z</time>
      </trkpt>
      <trkpt lat="44.25153" lon="6.71137">
        <ele>2323.1</ele>
        <time>2017-08-13T11:05:38Z</time>
      </trkpt>
      <trkpt lat="44.25146" lon="6.71129">
        <ele>2322.2</ele>
        <time>2017-08-13T11:05:45Z</time>
      </trkpt>
      <trkpt lat="44.25137" lon="6.71122">
        <ele>2321.3</ele>
        <time>2017-08-13T11:05:54Z</time>
      </trkpt>
      <trkpt lat="44.25131" lon="6.71114">
        <ele>2320</ele>
        <time>2017-08-13T11:06:02Z</time>
      </trkpt>
      <trkpt lat="44.25124" lon="6.71103">
        <ele>2318.9</ele>
        <time>2017-08-13T11:06:09Z</time>
      </trkpt>
      <trkpt lat="44.25117" lon="6.71094">
        <ele>2317.6</ele>
        <time>2017-08-13T11:06:17Z</time>
      </trkpt>
      <trkpt lat="44.25109" lon="6.71086">
        <ele>2316</ele>
        <time>2017-08-13T11:06:27Z</time>
      </trkpt>
      <trkpt lat="44.25099" lon="6.71087">
        <ele>2314.1</ele>
        <time>2017-08-13T11:06:40Z</time>
      </trkpt>
      <trkpt lat="44.2509" lon="6.71082">
        <ele>2312</ele>
        <time>2017-08-13T11:07:00Z</time>
      </trkpt>
      <trkpt lat="44.25083" lon="6.71075">
        <ele>2310.9</ele>
        <time>2017-08-13T11:07:09Z</time>
      </trkpt>
      <trkpt lat="44.25077" lon="6.71064">
        <ele>2309.5</ele>
        <time>2017-08-13T11:07:18Z</time>
      </trkpt>
      <trkpt lat="44.25069" lon="6.71056">
        <ele>2308.3</ele>
        <time>2017-08-13T11:07:25Z</time>
      </trkpt>
      <trkpt lat="44.25064" lon="6.71045">
        <ele>2306.9</ele>
        <time>2017-08-13T11:07:33Z</time>
      </trkpt>
      <trkpt lat="44.25056" lon="6.71038">
        <ele>2305.4</ele>
        <time>2017-08-13T11:07:42Z</time>
      </trkpt>
      <trkpt lat="44.25047" lon="6.71034">
        <ele>2304.2</ele>
        <time>2017-08-13T11:07:49Z</time>
      </trkpt>
      <trkpt lat="44.25038" lon="6.71028">
        <ele>2302.9</ele>
        <time>2017-08-13T11:07:57Z</time>
      </trkpt>
      <trkpt lat="44.2503" lon="6.7102">
        <ele>2301.9</ele>
        <time>2017-08-13T11:08:07Z</time>
      </trkpt>
      <trkpt lat="44.25023" lon="6.71013">
        <ele>2301.1</ele>
        <time>2017-08-13T11:08:13Z</time>
      </trkpt>
      <trkpt lat="44.25016" lon="6.71004">
        <ele>2300.3</ele>
        <time>2017-08-13T11:08:19Z</time>
      </trkpt>
      <trkpt lat="44.25008" lon="6.70997">
        <ele>2299.1</ele>
        <time>2017-08-13T11:08:28Z</time>
      </trkpt>
      <trkpt lat="44.25002" lon="6.70986">
        <ele>2298.1</ele>
        <time>2017-08-13T11:08:35Z</time>
      </trkpt>
      <trkpt lat="44.24995" lon="6.70977">
        <ele>2296.5</ele>
        <time>2017-08-13T11:08:43Z</time>
      </trkpt>
      <trkpt lat="44.24987" lon="6.70971">
        <ele>2295</ele>
        <time>2017-08-13T11:08:53Z</time>
      </trkpt>
      <trkpt lat="44.24982" lon="6.70959">
        <ele>2293.6</ele>
        <time>2017-08-13T11:09:01Z</time>
      </trkpt>
      <trkpt lat="44.24976" lon="6.70949">
        <ele>2292.2</ele>
        <time>2017-08-13T11:09:09Z</time>
      </trkpt>
      <trkpt lat="44.24968" lon="6.7094">
        <ele>2290.2</ele>
        <time>2017-08-13T11:09:20Z</time>
      </trkpt>
      <trkpt lat="44.2496" lon="6.70931">
        <ele>2288.1</ele>
        <time>2017-08-13T11:09:32Z</time>
      </trkpt>
      <trkpt lat="44.24952" lon="6.70923">
        <ele>2286.7</ele>
        <time>2017-08-13T11:09:38Z</time>
      </trkpt>
      <trkpt lat="44.24943" lon="6.70917">
        <ele>2284.4</ele>
        <time>2017-08-13T11:09:46Z</time>
      </trkpt>
      <trkpt lat="44.24934" lon="6.70911">
        <ele>2282.7</ele>
        <time>2017-08-13T11:09:53Z</time>
      </trkpt>
      <trkpt lat="44.2493" lon="6.70899">
        <ele>2281.1</ele>
        <time>2017-08-13T11:10:01Z</time>
      </trkpt>
      <trkpt lat="44.2493" lon="6.70885">
        <ele>2280.4</ele>
        <time>2017-08-13T11:10:06Z</time>
      </trkpt>
      <trkpt lat="44.24932" lon="6.70872">
        <ele>2279.5</ele>
        <time>2017-08-13T11:10:12Z</time>
      </trkpt>
      <trkpt lat="44.24927" lon="6.70862">
        <ele>2278.4</ele>
        <time>2017-08-13T11:10:19Z</time>
      </trkpt>
      <trkpt lat="44.24918" lon="6.70861">
        <ele>2277.3</ele>
        <time>2017-08-13T11:10:27Z</time>
      </trkpt>
      <trkpt lat="44.24908" lon="6.70856">
        <ele>2276.6</ele>
        <time>2017-08-13T11:10:33Z</time>
      </trkpt>
      <trkpt lat="44.24899" lon="6.70858">
        <ele>2276</ele>
        <time>2017-08-13T11:10:39Z</time>
      </trkpt>
      <trkpt lat="44.24892" lon="6.70868">
        <ele>2275.3</ele>
        <time>2017-08-13T11:10:44Z</time>
      </trkpt>
      <trkpt lat="44.24884" lon="6.70877">
        <ele>2274.5</ele>
        <time>2017-08-13T11:10:51Z</time>
      </trkpt>
      <trkpt lat="44.24876" lon="6.70882">
        <ele>2273.9</ele>
        <time>2017-08-13T11:10:58Z</time>
      </trkpt>
      <trkpt lat="44.24871" lon="6.70894">
        <ele>2273.4</ele>
        <time>2017-08-13T11:11:04Z</time>
      </trkpt>
      <trkpt lat="44.2487" lon="6.70908">
        <ele>2272.5</ele>
        <time>2017-08-13T11:11:14Z</time>
      </trkpt>
      <trkpt lat="44.24869" lon="6.70921">
        <ele>2271.3</ele>
        <time>2017-08-13T11:11:25Z</time>
      </trkpt>
      <trkpt lat="44.2486" lon="6.70913">
        <ele>2269.7</ele>
        <time>2017-08-13T11:11:41Z</time>
      </trkpt>
      <trkpt lat="44.24856" lon="6.70901">
        <ele>2269.2</ele>
        <time>2017-08-13T11:11:50Z</time>
      </trkpt>
      <trkpt lat="44.24847" lon="6.70899">
        <ele>2268.8</ele>
        <time>2017-08-13T11:11:59Z</time>
      </trkpt>
      <trkpt lat="44.24837" lon="6.70899">
        <ele>2268.5</ele>
        <time>2017-08-13T11:12:11Z</time>
      </trkpt>
      <trkpt lat="44.24831" lon="6.70888">
        <ele>2268.3</ele>
        <time>2017-08-13T11:12:23Z</time>
      </trkpt>
      <trkpt lat="44.24825" lon="6.70878">
        <ele>2268.3</ele>
        <time>2017-08-13T11:12:32Z</time>
      </trkpt>
      <trkpt lat="44.2482" lon="6.70867">
        <ele>2268.2</ele>
        <time>2017-08-13T11:12:40Z</time>
      </trkpt>
      <trkpt lat="44.24814" lon="6.70856">
        <ele>2268.2</ele>
        <time>2017-08-13T11:12:51Z</time>
      </trkpt>
      <trkpt lat="44.24807" lon="6.70849">
        <ele>2269.7</ele>
        <time>2017-08-13T11:13:06Z</time>
      </trkpt>
      <trkpt lat="44.24797" lon="6.70847">
        <ele>2270.4</ele>
        <time>2017-08-13T11:13:16Z</time>
      </trkpt>
      <trkpt lat="44.24788" lon="6.70853">
        <ele>2270.9</ele>
        <time>2017-08-13T11:13:35Z</time>
      </trkpt>
      <trkpt lat="44.2478" lon="6.70857">
        <ele>2271</ele>
        <time>2017-08-13T11:13:54Z</time>
      </trkpt>
      <trkpt lat="44.2477" lon="6.70855">
        <ele>2270.2</ele>
        <time>2017-08-13T11:14:20Z</time>
      </trkpt>
      <trkpt lat="44.24761" lon="6.7085">
        <ele>2269.9</ele>
        <time>2017-08-13T11:14:31Z</time>
      </trkpt>
      <trkpt lat="44.24752" lon="6.70854">
        <ele>2269.7</ele>
        <time>2017-08-13T11:14:41Z</time>
      </trkpt>
      <trkpt lat="44.24746" lon="6.70843">
        <ele>2269.3</ele>
        <time>2017-08-13T11:15:07Z</time>
      </trkpt>
      <trkpt lat="44.24737" lon="6.70842">
        <ele>2269.2</ele>
        <time>2017-08-13T11:15:16Z</time>
      </trkpt>
      <trkpt lat="44.24728" lon="6.70838">
        <ele>2269.1</ele>
        <time>2017-08-13T11:15:23Z</time>
      </trkpt>
      <trkpt lat="44.24719" lon="6.70834">
        <ele>2269</ele>
        <time>2017-08-13T11:15:30Z</time>
      </trkpt>
      <trkpt lat="44.2471" lon="6.7083">
        <ele>2269</ele>
        <time>2017-08-13T11:15:38Z</time>
      </trkpt>
      <trkpt lat="44.24701" lon="6.70824">
        <ele>2268.9</ele>
        <time>2017-08-13T11:15:46Z</time>
      </trkpt>
      <trkpt lat="44.24692" lon="6.7082">
        <ele>2268.8</ele>
        <time>2017-08-13T11:15:54Z</time>
      </trkpt>
      <trkpt lat="44.24683" lon="6.70815">
        <ele>2268.7</ele>
        <time>2017-08-13T11:16:01Z</time>
      </trkpt>
      <trkpt lat="44.24674" lon="6.7081">
        <ele>2268.6</ele>
        <time>2017-08-13T11:16:08Z</time>
      </trkpt>
      <trkpt lat="44.24666" lon="6.70803">
        <ele>2268.3</ele>
        <time>2017-08-13T11:16:16Z</time>
      </trkpt>
      <trkpt lat="44.24659" lon="6.70794">
        <ele>2268.1</ele>
        <time>2017-08-13T11:16:24Z</time>
      </trkpt>
      <trkpt lat="44.24649" lon="6.70789">
        <ele>2268</ele>
        <time>2017-08-13T11:16:32Z</time>
      </trkpt>
      <trkpt lat="44.2464" lon="6.70783">
        <ele>2267.9</ele>
        <time>2017-08-13T11:16:41Z</time>
      </trkpt>
      <trkpt lat="44.24631" lon="6.70779">
        <ele>2268.4</ele>
        <time>2017-08-13T11:16:52Z</time>
      </trkpt>
      <trkpt lat="44.24623" lon="6.70773">
        <ele>2270</ele>
        <time>2017-08-13T11:17:05Z</time>
      </trkpt>
      <trkpt lat="44.24614" lon="6.70772">
        <ele>2271</ele>
        <time>2017-08-13T11:17:13Z</time>
      </trkpt>
      <trkpt lat="44.24605" lon="6.70769">
        <ele>2271.9</ele>
        <time>2017-08-13T11:17:25Z</time>
      </trkpt>
      <trkpt lat="44.24598" lon="6.7076">
        <ele>2272.5</ele>
        <time>2017-08-13T11:17:37Z</time>
      </trkpt>
      <trkpt lat="44.24595" lon="6.70747">
        <ele>2272.6</ele>
        <time>2017-08-13T11:18:15Z</time>
      </trkpt>
      <trkpt lat="44.24585" lon="6.70745">
        <ele>2272.4</ele>
        <time>2017-08-13T11:18:26Z</time>
      </trkpt>
      <trkpt lat="44.24576" lon="6.70746">
        <ele>2272.2</ele>
        <time>2017-08-13T11:18:34Z</time>
      </trkpt>
      <trkpt lat="44.24567" lon="6.70742">
        <ele>2272.1</ele>
        <time>2017-08-13T11:18:42Z</time>
      </trkpt>
      <trkpt lat="44.24558" lon="6.70747">
        <ele>2271.9</ele>
        <time>2017-08-13T11:18:52Z</time>
      </trkpt>
      <trkpt lat="44.24548" lon="6.70744">
        <ele>2271.4</ele>
        <time>2017-08-13T11:19:01Z</time>
      </trkpt>
      <trkpt lat="44.24538" lon="6.70744">
        <ele>2271.1</ele>
        <time>2017-08-13T11:19:09Z</time>
      </trkpt>
      <trkpt lat="44.24529" lon="6.70741">
        <ele>2270.5</ele>
        <time>2017-08-13T11:19:20Z</time>
      </trkpt>
      <trkpt lat="44.24519" lon="6.70739">
        <ele>2270</ele>
        <time>2017-08-13T11:19:29Z</time>
      </trkpt>
      <trkpt lat="44.2451" lon="6.70738">
        <ele>2269.5</ele>
        <time>2017-08-13T11:19:37Z</time>
      </trkpt>
      <trkpt lat="44.24501" lon="6.70731">
        <ele>2268.9</ele>
        <time>2017-08-13T11:19:49Z</time>
      </trkpt>
      <trkpt lat="44.24492" lon="6.70733">
        <ele>2268.6</ele>
        <time>2017-08-13T11:19:56Z</time>
      </trkpt>
      <trkpt lat="44.24488" lon="6.70721">
        <ele>2268.2</ele>
        <time>2017-08-13T11:20:12Z</time>
      </trkpt>
      <trkpt lat="44.24483" lon="6.7071">
        <ele>2268.1</ele>
        <time>2017-08-13T11:20:20Z</time>
      </trkpt>
      <trkpt lat="44.24477" lon="6.707">
        <ele>2268</ele>
        <time>2017-08-13T11:20:29Z</time>
      </trkpt>
      <trkpt lat="44.24469" lon="6.70692">
        <ele>2268.2</ele>
        <time>2017-08-13T11:20:38Z</time>
      </trkpt>
      <trkpt lat="44.2446" lon="6.70683">
        <ele>2268.3</ele>
        <time>2017-08-13T11:20:49Z</time>
      </trkpt>
      <trkpt lat="44.24453" lon="6.70674">
        <ele>2268.3</ele>
        <time>2017-08-13T11:20:56Z</time>
      </trkpt>
      <trkpt lat="44.24444" lon="6.70669">
        <ele>2268.3</ele>
        <time>2017-08-13T11:21:05Z</time>
      </trkpt>
      <trkpt lat="44.24436" lon="6.70663">
        <ele>2268.2</ele>
        <time>2017-08-13T11:21:19Z</time>
      </trkpt>
      <trkpt lat="44.24427" lon="6.70658">
        <ele>2267.8</ele>
        <time>2017-08-13T11:21:27Z</time>
      </trkpt>
      <trkpt lat="44.24417" lon="6.70657">
        <ele>2267.4</ele>
        <time>2017-08-13T11:21:35Z</time>
      </trkpt>
      <trkpt lat="44.24408" lon="6.70658">
        <ele>2267.1</ele>
        <time>2017-08-13T11:21:46Z</time>
      </trkpt>
      <trkpt lat="44.24399" lon="6.70663">
        <ele>2266.9</ele>
        <time>2017-08-13T11:21:55Z</time>
      </trkpt>
      <trkpt lat="44.2439" lon="6.70668">
        <ele>2266.8</ele>
        <time>2017-08-13T11:22:02Z</time>
      </trkpt>
      <trkpt lat="44.24381" lon="6.70671">
        <ele>2266.7</ele>
        <time>2017-08-13T11:22:09Z</time>
      </trkpt>
      <trkpt lat="44.24373" lon="6.70678">
        <ele>2266.7</ele>
        <time>2017-08-13T11:22:17Z</time>
      </trkpt>
      <trkpt lat="44.24367" lon="6.70688">
        <ele>2266.6</ele>
        <time>2017-08-13T11:22:26Z</time>
      </trkpt>
      <trkpt lat="44.24361" lon="6.70698">
        <ele>2266.5</ele>
        <time>2017-08-13T11:22:31Z</time>
      </trkpt>
      <trkpt lat="44.24354" lon="6.70708">
        <ele>2266.4</ele>
        <time>2017-08-13T11:22:40Z</time>
      </trkpt>
      <trkpt lat="44.24348" lon="6.70718">
        <ele>2266.4</ele>
        <time>2017-08-13T11:22:48Z</time>
      </trkpt>
      <trkpt lat="44.2434" lon="6.70725">
        <ele>2266.3</ele>
        <time>2017-08-13T11:22:57Z</time>
      </trkpt>
      <trkpt lat="44.24334" lon="6.70736">
        <ele>2266.2</ele>
        <time>2017-08-13T11:23:07Z</time>
      </trkpt>
      <trkpt lat="44.24329" lon="6.70747">
        <ele>2266.2</ele>
        <time>2017-08-13T11:23:15Z</time>
      </trkpt>
      <trkpt lat="44.24324" lon="6.70759">
        <ele>2266.2</ele>
        <time>2017-08-13T11:23:26Z</time>
      </trkpt>
      <trkpt lat="44.24319" lon="6.70771">
        <ele>2266.2</ele>
        <time>2017-08-13T11:23:35Z</time>
      </trkpt>
      <trkpt lat="44.24311" lon="6.70778">
        <ele>2266.2</ele>
        <time>2017-08-13T11:23:44Z</time>
      </trkpt>
      <trkpt lat="44.24301" lon="6.70781">
        <ele>2266.2</ele>
        <time>2017-08-13T11:23:56Z</time>
      </trkpt>
      <trkpt lat="44.24292" lon="6.70784">
        <ele>2266.2</ele>
        <time>2017-08-13T11:24:08Z</time>
      </trkpt>
      <trkpt lat="44.24284" lon="6.70792">
        <ele>2266.3</ele>
        <time>2017-08-13T11:24:18Z</time>
      </trkpt>
      <trkpt lat="44.24279" lon="6.70803">
        <ele>2266.3</ele>
        <time>2017-08-13T11:24:26Z</time>
      </trkpt>
      <trkpt lat="44.24272" lon="6.70812">
        <ele>2266.2</ele>
        <time>2017-08-13T11:24:34Z</time>
      </trkpt>
      <trkpt lat="44.24264" lon="6.70818">
        <ele>2266.2</ele>
        <time>2017-08-13T11:24:42Z</time>
      </trkpt>
      <trkpt lat="44.24255" lon="6.70815">
        <ele>2266.1</ele>
        <time>2017-08-13T11:24:51Z</time>
      </trkpt>
      <trkpt lat="44.24246" lon="6.70813">
        <ele>2266</ele>
        <time>2017-08-13T11:25:01Z</time>
      </trkpt>
      <trkpt lat="44.24236" lon="6.70811">
        <ele>2265.9</ele>
        <time>2017-08-13T11:25:10Z</time>
      </trkpt>
      <trkpt lat="44.24225" lon="6.70813">
        <ele>2265.9</ele>
        <time>2017-08-13T11:25:18Z</time>
      </trkpt>
      <trkpt lat="44.24216" lon="6.7081">
        <ele>2266</ele>
        <time>2017-08-13T11:25:27Z</time>
      </trkpt>
      <trkpt lat="44.24209" lon="6.70801">
        <ele>2265.9</ele>
        <time>2017-08-13T11:25:39Z</time>
      </trkpt>
      <trkpt lat="44.242" lon="6.70796">
        <ele>2265.6</ele>
        <time>2017-08-13T11:25:50Z</time>
      </trkpt>
      <trkpt lat="44.24191" lon="6.70789">
        <ele>2265.4</ele>
        <time>2017-08-13T11:25:57Z</time>
      </trkpt>
      <trkpt lat="44.24181" lon="6.70789">
        <ele>2265.3</ele>
        <time>2017-08-13T11:26:05Z</time>
      </trkpt>
      <trkpt lat="44.24172" lon="6.7079">
        <ele>2265.2</ele>
        <time>2017-08-13T11:26:14Z</time>
      </trkpt>
      <trkpt lat="44.24162" lon="6.70786">
        <ele>2265.2</ele>
        <time>2017-08-13T11:26:24Z</time>
      </trkpt>
      <trkpt lat="44.24153" lon="6.70789">
        <ele>2265.3</ele>
        <time>2017-08-13T11:26:31Z</time>
      </trkpt>
      <trkpt lat="44.24144" lon="6.70795">
        <ele>2265.5</ele>
        <time>2017-08-13T11:26:39Z</time>
      </trkpt>
      <trkpt lat="44.24136" lon="6.70801">
        <ele>2265.8</ele>
        <time>2017-08-13T11:26:46Z</time>
      </trkpt>
      <trkpt lat="44.24128" lon="6.70806">
        <ele>2266.3</ele>
        <time>2017-08-13T11:26:54Z</time>
      </trkpt>
      <trkpt lat="44.24119" lon="6.70812">
        <ele>2266.5</ele>
        <time>2017-08-13T11:27:04Z</time>
      </trkpt>
      <trkpt lat="44.2411" lon="6.70817">
        <ele>2266.6</ele>
        <time>2017-08-13T11:27:10Z</time>
      </trkpt>
      <trkpt lat="44.24101" lon="6.70823">
        <ele>2266.6</ele>
        <time>2017-08-13T11:27:19Z</time>
      </trkpt>
      <trkpt lat="44.24092" lon="6.70823">
        <ele>2266.6</ele>
        <time>2017-08-13T11:27:26Z</time>
      </trkpt>
      <trkpt lat="44.24083" lon="6.70824">
        <ele>2266.6</ele>
        <time>2017-08-13T11:27:34Z</time>
      </trkpt>
      <trkpt lat="44.24074" lon="6.70823">
        <ele>2266.5</ele>
        <time>2017-08-13T11:27:42Z</time>
      </trkpt>
      <trkpt lat="44.24065" lon="6.70828">
        <ele>2266.3</ele>
        <time>2017-08-13T11:27:51Z</time>
      </trkpt>
      <trkpt lat="44.24056" lon="6.7083">
        <ele>2266.1</ele>
        <time>2017-08-13T11:27:59Z</time>
      </trkpt>
      <trkpt lat="44.24049" lon="6.70838">
        <ele>2266</ele>
        <time>2017-08-13T11:28:06Z</time>
      </trkpt>
      <trkpt lat="44.24041" lon="6.70845">
        <ele>2266</ele>
        <time>2017-08-13T11:28:12Z</time>
      </trkpt>
      <trkpt lat="44.24038" lon="6.70833">
        <ele>2265.9</ele>
        <time>2017-08-13T11:28:19Z</time>
      </trkpt>
      <trkpt lat="44.24036" lon="6.7082">
        <ele>2266.1</ele>
        <time>2017-08-13T11:28:26Z</time>
      </trkpt>
      <trkpt lat="44.2403" lon="6.70809">
        <ele>2266.2</ele>
        <time>2017-08-13T11:28:34Z</time>
      </trkpt>
      <trkpt lat="44.24022" lon="6.70804">
        <ele>2266.2</ele>
        <time>2017-08-13T11:28:43Z</time>
      </trkpt>
      <trkpt lat="44.24012" lon="6.70804">
        <ele>2266.2</ele>
        <time>2017-08-13T11:28:51Z</time>
      </trkpt>
      <trkpt lat="44.24005" lon="6.7081">
        <ele>2266.2</ele>
        <time>2017-08-13T11:28:57Z</time>
      </trkpt>
      <trkpt lat="44.23996" lon="6.70816">
        <ele>2266.1</ele>
        <time>2017-08-13T11:29:06Z</time>
      </trkpt>
      <trkpt lat="44.23988" lon="6.70823">
        <ele>2265.8</ele>
        <time>2017-08-13T11:29:14Z</time>
      </trkpt>
      <trkpt lat="44.23978" lon="6.70826">
        <ele>2265.4</ele>
        <time>2017-08-13T11:29:23Z</time>
      </trkpt>
      <trkpt lat="44.23969" lon="6.70822">
        <ele>2264.9</ele>
        <time>2017-08-13T11:29:32Z</time>
      </trkpt>
      <trkpt lat="44.23964" lon="6.70811">
        <ele>2264.4</ele>
        <time>2017-08-13T11:29:40Z</time>
      </trkpt>
      <trkpt lat="44.23958" lon="6.708">
        <ele>2263.9</ele>
        <time>2017-08-13T11:29:47Z</time>
      </trkpt>
      <trkpt lat="44.23954" lon="6.70788">
        <ele>2263.6</ele>
        <time>2017-08-13T11:29:54Z</time>
      </trkpt>
      <trkpt lat="44.23947" lon="6.70777">
        <ele>2263.2</ele>
        <time>2017-08-13T11:30:02Z</time>
      </trkpt>
      <trkpt lat="44.23937" lon="6.70779">
        <ele>2262.6</ele>
        <time>2017-08-13T11:30:10Z</time>
      </trkpt>
      <trkpt lat="44.23927" lon="6.70781">
        <ele>2262</ele>
        <time>2017-08-13T11:30:18Z</time>
      </trkpt>
      <trkpt lat="44.23918" lon="6.70777">
        <ele>2261.2</ele>
        <time>2017-08-13T11:30:29Z</time>
      </trkpt>
      <trkpt lat="44.23908" lon="6.70777">
        <ele>2260.9</ele>
        <time>2017-08-13T11:30:36Z</time>
      </trkpt>
      <trkpt lat="44.23898" lon="6.70775">
        <ele>2260.5</ele>
        <time>2017-08-13T11:30:43Z</time>
      </trkpt>
      <trkpt lat="44.23889" lon="6.70778">
        <ele>2259.2</ele>
        <time>2017-08-13T11:30:54Z</time>
      </trkpt>
      <trkpt lat="44.23881" lon="6.70782">
        <ele>2258.6</ele>
        <time>2017-08-13T11:31:01Z</time>
      </trkpt>
      <trkpt lat="44.23872" lon="6.70785">
        <ele>2258</ele>
        <time>2017-08-13T11:31:09Z</time>
      </trkpt>
      <trkpt lat="44.23862" lon="6.70781">
        <ele>2257.3</ele>
        <time>2017-08-13T11:31:20Z</time>
      </trkpt>
      <trkpt lat="44.23853" lon="6.70775">
        <ele>2256.4</ele>
        <time>2017-08-13T11:31:29Z</time>
      </trkpt>
      <trkpt lat="44.23844" lon="6.70772">
        <ele>2255.2</ele>
        <time>2017-08-13T11:31:39Z</time>
      </trkpt>
      <trkpt lat="44.23836" lon="6.70765">
        <ele>2254.2</ele>
        <time>2017-08-13T11:31:47Z</time>
      </trkpt>
      <trkpt lat="44.2383" lon="6.70755">
        <ele>2252.7</ele>
        <time>2017-08-13T11:31:59Z</time>
      </trkpt>
      <trkpt lat="44.23828" lon="6.70743">
        <ele>2251</ele>
        <time>2017-08-13T11:32:11Z</time>
      </trkpt>
      <trkpt lat="44.2383" lon="6.7073">
        <ele>2250.1</ele>
        <time>2017-08-13T11:32:20Z</time>
      </trkpt>
      <trkpt lat="44.23826" lon="6.70718">
        <ele>2249.5</ele>
        <time>2017-08-13T11:32:28Z</time>
      </trkpt>
      <trkpt lat="44.23824" lon="6.70705">
        <ele>2248.5</ele>
        <time>2017-08-13T11:32:37Z</time>
      </trkpt>
      <trkpt lat="44.23817" lon="6.70694">
        <ele>2247.7</ele>
        <time>2017-08-13T11:32:44Z</time>
      </trkpt>
      <trkpt lat="44.23816" lon="6.70682">
        <ele>2247</ele>
        <time>2017-08-13T11:32:50Z</time>
      </trkpt>
      <trkpt lat="44.23807" lon="6.7068">
        <ele>2245.3</ele>
        <time>2017-08-13T11:33:05Z</time>
      </trkpt>
      <trkpt lat="44.23803" lon="6.70691">
        <ele>2243.9</ele>
        <time>2017-08-13T11:33:14Z</time>
      </trkpt>
      <trkpt lat="44.23795" lon="6.70699">
        <ele>2241.1</ele>
        <time>2017-08-13T11:33:30Z</time>
      </trkpt>
      <trkpt lat="44.23787" lon="6.707">
        <ele>2236</ele>
        <time>2017-08-13T11:33:50Z</time>
      </trkpt>
    </trkseg>
  </trk>
</gpx>